Darstellungsparameter: Aktuell verwendete Einstellungen:
Skalierung der Graphiken ... ?
xyx+y,   Skalierungsfaktor:      Skalierung: Modus: x, Faktor: 1
Darstellungszeitraum ... ?
Vom - - bis: - -   Zeitraum: 24.05.2011 - 06.06.2011
Min/Max/Avg-Anzeige ... ?
Zeige MMA aktuell
Zeige MMA Monat
Zeige MMA alles
Zeige --A aktuell
Zeige --A Monat
Zeige --A alles
Keine MMA-Anzeige
MMA:
Minimum Maximum Average (ber die Originaldaten)
MMA-Basis: 23.02.2003 - 07.06.2011
Quicknavigation für Darstellung... ?
Tage:      1T, 2T, 3T, 5T -1T -2T -3T -5T +1T +2T +3T +5T
Wochen: 1W, 2W, 3W -1W -2W -3W +1W +2W +3W
Monate: 1M, 3M, 6M -1M -3M -6M +1M +3M +6M
Jahre:    1J, 3J, 5J, 10J -1J -3J -5J -10J +1J +3J +5J +10J
Nutze für die Darstellung ... ?
Originaldaten oder Mittelwerte auf ...
Stundenbasis Tagesbasis Wochenbasis
Monatsbasis Jahresbasis      Datenbasis: Original-Daten
Darstellen als:
Statistik (Auto) Statistik J:M      Darstellung:
Zur Graphik,    zurück zur Übersicht aller Sensoren.
 
Tabellarische Datenbersicht: ?
 
Sensor: Nr:Datum:Temp:Abs-Feuchte:Windchill:Wind:
Aussen-T/F 1 24-05-2011 00:06:05 11.2 C 7.2 g/m*3 11.2 C 0 km/h
2 24-05-2011 00:18:05 10.8 C 7.12 g/m*3 10.8 C 0 km/h
3 24-05-2011 00:30:05 10.9 C 7.46 g/m*3 10.9 C 0 km/h
4 24-05-2011 00:42:05 10.7 C 7.37 g/m*3 10.7 C 0 km/h
5 24-05-2011 00:54:05 10.6 C 7.22 g/m*3 10.6 C 0 km/h
6 24-05-2011 01:06:05 10.6 C 7.22 g/m*3 10.6 C 0 km/h
7 24-05-2011 01:18:05 10.4 C 7.23 g/m*3 10.4 C 0 km/h
8 24-05-2011 01:30:05 10.2 C 7.14 g/m*3 10.2 C 0 km/h
9 24-05-2011 01:42:05 10 C 7.05 g/m*3 10 C 0 km/h
10 24-05-2011 01:54:05 10 C 7.14 g/m*3 10 C 0 km/h
11 24-05-2011 02:06:05 9.8 C 7.24 g/m*3 9.8 C 0 km/h
12 24-05-2011 02:18:05 9.8 C 7.24 g/m*3 9.8 C 0 km/h
13 24-05-2011 02:30:06 9.6 C 7.24 g/m*3 9.6 C 0 km/h
14 24-05-2011 02:42:06 9.2 C 7.05 g/m*3 9.2 C 0 km/h
15 24-05-2011 02:54:06 9.2 C 7.14 g/m*3 9.2 C 0 km/h
16 24-05-2011 03:06:06 9.1 C 7.1 g/m*3 9.1 C 0 km/h
17 24-05-2011 03:18:06 8.9 C 7.27 g/m*3 8.9 C 0 km/h
18 24-05-2011 03:30:06 9 C 7.23 g/m*3 9 C 0 km/h
19 24-05-2011 03:42:06 9.3 C 7.46 g/m*3 9.3 C 0 km/h
20 24-05-2011 03:54:06 9.2 C 7.41 g/m*3 9.2 C 0 km/h
21 24-05-2011 04:06:06 8.9 C 7.27 g/m*3 8.9 C 0 km/h
22 24-05-2011 04:18:06 8.8 C 7.22 g/m*3 8.8 C 0 km/h
23 24-05-2011 04:30:06 8.6 C 7.13 g/m*3 8.6 C 0 km/h
24 24-05-2011 04:42:06 8.5 C 7.17 g/m*3 8.5 C 0 km/h
25 24-05-2011 04:54:06 8.4 C 7.21 g/m*3 8.4 C 0 km/h
Sensor: Nr:Datum:Temp:Abs-Feuchte:Windchill:Wind:
Aussen-T/F 26 24-05-2011 05:06:06 9.2 C 7.59 g/m*3 9.2 C 0 km/h
27 24-05-2011 05:18:06 9.7 C 7.84 g/m*3 9.7 C 0 km/h
28 24-05-2011 05:30:06 10.3 C 7.85 g/m*3 10.3 C 0 km/h
29 24-05-2011 05:42:06 9.7 C 7.47 g/m*3 9.7 C 0 km/h
30 24-05-2011 05:54:06 9.2 C 7.23 g/m*3 9.2 C 0 km/h
31 24-05-2011 06:06:06 9.2 C 7.32 g/m*3 9.2 C 0 km/h
32 24-05-2011 06:18:06 9.8 C 7.79 g/m*3 9.8 C 0 km/h
33 24-05-2011 06:30:07 11 C 8.21 g/m*3 11 C 0 km/h
34 24-05-2011 06:42:07 11.6 C 7.9 g/m*3 11.6 C 0 km/h
35 24-05-2011 06:54:07 12.1 C 7.4 g/m*3 12.1 C 0 km/h
36 24-05-2011 07:06:07 12.2 C 7.23 g/m*3 12.2 C 0 km/h
37 24-05-2011 07:18:04 12.4 C 7.32 g/m*3 12.4 C 0 km/h
38 24-05-2011 07:30:04 12.9 C 7.44 g/m*3 12.9 C 0 km/h
39 24-05-2011 07:42:04 13.6 C 7.53 g/m*3 13.6 C 0 km/h
40 24-05-2011 07:54:02 14.1 C 7.16 g/m*3 14.1 C 0 km/h
41 24-05-2011 08:06:01 14.2 C 7.2 g/m*3 14.2 C 0 km/h
42 24-05-2011 08:18:02 14.3 C 7.62 g/m*3 14.3 C 0 km/h
43 24-05-2011 08:30:02 13.9 C 7.91 g/m*3 13.9 C 0 km/h
44 24-05-2011 08:42:01 13.3 C 7.97 g/m*3 13.3 C 0 km/h
45 24-05-2011 08:54:02 13.5 C 8.07 g/m*3 13.5 C 0 km/h
46 24-05-2011 09:06:01 14.2 C 7.69 g/m*3 14.2 C 0 km/h
47 24-05-2011 09:18:01 15.2 C 7.66 g/m*3 15.2 C 0 km/h
48 24-05-2011 09:30:01 16.3 C 7.21 g/m*3 16.3 C 0 km/h
49 24-05-2011 09:42:02 17 C 6.95 g/m*3 17 C 0 km/h
50 24-05-2011 09:54:02 17.4 C 6.82 g/m*3 17.4 C 0 km/h
Sensor: Nr:Datum:Temp:Abs-Feuchte:Windchill:Wind:
Aussen-T/F 51 24-05-2011 10:06:02 18.2 C 6.99 g/m*3 18.2 C 0 km/h
52 24-05-2011 10:18:02 18.6 C 7 g/m*3 18.6 C 0 km/h
53 24-05-2011 10:30:02 18.3 C 6.88 g/m*3 18.3 C 0 km/h
54 24-05-2011 10:42:02 17.6 C 7.05 g/m*3 17.6 C 0 km/h
55 24-05-2011 10:54:02 17.9 C 7.02 g/m*3 17.9 C 0 km/h
56 24-05-2011 11:06:01 18 C 6.91 g/m*3 18 C 0 km/h
57 24-05-2011 11:18:02 18.3 C 7.19 g/m*3 18.3 C 0 km/h
58 24-05-2011 11:30:03 19.1 C 6.88 g/m*3 19.1 C 0 km/h
59 24-05-2011 11:42:01 19.8 C 7 g/m*3 19.8 C 0 km/h
60 24-05-2011 11:54:02 19.1 C 6.56 g/m*3 19.1 C 0 km/h
61 24-05-2011 12:06:01 18.5 C 6.33 g/m*3 18.5 C 0 km/h
62 24-05-2011 12:18:02 18.5 C 6.65 g/m*3 18.5 C 0 km/h
63 24-05-2011 12:30:02 18.5 C 6.17 g/m*3 18.5 C 0 km/h
64 24-05-2011 12:42:01 19.3 C 5.97 g/m*3 19.3 C 0 km/h
65 24-05-2011 12:54:03 18.9 C 5.67 g/m*3 18.9 C 0 km/h
66 24-05-2011 13:06:02 19.1 C 5.57 g/m*3 19.1 C 0 km/h
67 24-05-2011 13:18:02 19.9 C 5.84 g/m*3 19.9 C 0 km/h
68 24-05-2011 13:30:02 22.4 C 4.77 g/m*3 22.4 C 0 km/h
69 24-05-2011 13:42:02 23.4 C 4.21 g/m*3 23.4 C 0 km/h
70 24-05-2011 13:54:02 24.2 C 4.4 g/m*3 24.2 C 0 km/h
71 24-05-2011 14:06:02 24.6 C 4.5 g/m*3 24.6 C 0 km/h
72 24-05-2011 14:18:02 24.2 C 4.4 g/m*3 24.2 C 0 km/h
73 24-05-2011 14:30:02 24.1 C 4.38 g/m*3 24.1 C 0 km/h
74 24-05-2011 14:42:02 25.2 C 4.66 g/m*3 25.2 C 0 km/h
75 24-05-2011 14:54:02 25.7 C 4.79 g/m*3 25.7 C 0 km/h
Sensor: Nr:Datum:Temp:Abs-Feuchte:Windchill:Wind:
Aussen-T/F 76 24-05-2011 15:06:02 24.9 C 4.58 g/m*3 24.9 C 0 km/h
77 24-05-2011 15:18:02 24.9 C 4.58 g/m*3 24.9 C 0 km/h
78 24-05-2011 15:30:02 23 C 4.11 g/m*3 23 C 0 km/h
79 24-05-2011 15:42:02 24.1 C 4.38 g/m*3 24.1 C 0 km/h
80 24-05-2011 15:54:01 25 C 4.6 g/m*3 25 C 0 km/h
81 24-05-2011 16:06:01 24.7 C 4.53 g/m*3 24.7 C 0 km/h
82 24-05-2011 16:18:01 25.1 C 4.63 g/m*3 25.1 C 0 km/h
83 24-05-2011 16:30:01 24.4 C 4.45 g/m*3 24.4 C 0 km/h
84 24-05-2011 16:42:01 24.8 C 4.55 g/m*3 24.8 C 0 km/h
85 24-05-2011 16:54:01 23.1 C 4.13 g/m*3 23.1 C 0 km/h
86 24-05-2011 17:06:02 22.8 C 4.06 g/m*3 22.8 C 0 km/h
87 24-05-2011 17:18:01 22.1 C 3.9 g/m*3 22.1 C 0 km/h
88 24-05-2011 17:30:01 23.4 C 4.21 g/m*3 23.4 C 0 km/h
89 24-05-2011 17:42:01 23 C 4.11 g/m*3 23 C 0 km/h
90 24-05-2011 17:54:01 21.2 C 3.71 g/m*3 21.2 C 0 km/h
91 24-05-2011 18:06:01 22.2 C 3.93 g/m*3 22.2 C 0 km/h
92 24-05-2011 18:18:02 22.6 C 4.02 g/m*3 22.6 C 0 km/h
93 24-05-2011 18:30:02 22.3 C 3.95 g/m*3 22.3 C 0 km/h
94 24-05-2011 18:42:01 22.5 C 3.99 g/m*3 22.5 C 0 km/h
95 24-05-2011 18:54:03 22.9 C 4.09 g/m*3 22.9 C 0 km/h
96 24-05-2011 19:06:02 22 C 3.88 g/m*3 22 C 0 km/h
97 24-05-2011 19:18:02 22.1 C 3.9 g/m*3 22.1 C 0 km/h
98 24-05-2011 19:30:02 20 C 3.46 g/m*3 20 C 0 km/h
99 24-05-2011 19:42:02 19.3 C 3.32 g/m*3 19.3 C 0 km/h
100 24-05-2011 19:54:02 18.2 C 3.26 g/m*3 18.2 C 0 km/h
Sensor: Nr:Datum:Temp:Abs-Feuchte:Windchill:Wind:
Aussen-T/F 101 24-05-2011 20:06:01 17.9 C 3.21 g/m*3 17.9 C 0 km/h
102 24-05-2011 20:18:02 17.3 C 2.95 g/m*3 17.3 C 0 km/h
103 24-05-2011 20:30:02 17 C 3.33 g/m*3 17 C 0 km/h
104 24-05-2011 20:42:02 16.5 C 3.51 g/m*3 16.5 C 0 km/h
105 24-05-2011 20:54:02 16.1 C 3.43 g/m*3 16.1 C 0 km/h
106 24-05-2011 21:06:01 15.4 C 3.42 g/m*3 15.4 C 0 km/h
107 24-05-2011 21:18:02 14.6 C 3.75 g/m*3 14.6 C 0 km/h
108 24-05-2011 21:30:02 13.5 C 3.98 g/m*3 13.5 C 0 km/h
109 24-05-2011 21:42:01 13.6 C 4.24 g/m*3 13.6 C 0 km/h
110 24-05-2011 21:54:02 12.8 C 4.37 g/m*3 12.8 C 0 km/h
111 24-05-2011 22:06:02 11.9 C 4.45 g/m*3 11.9 C 0 km/h
112 24-05-2011 22:18:02 11.8 C 4.42 g/m*3 11.8 C 0 km/h
113 24-05-2011 22:30:02 11.5 C 4.54 g/m*3 11.5 C 0 km/h
114 24-05-2011 22:43:03 11.4 C 4.41 g/m*3 11.4 C 0 km/h
115 24-05-2011 22:55:03 11.5 C 4.54 g/m*3 11.5 C 0 km/h
116 24-05-2011 23:07:03 11 C 4.6 g/m*3 11 C 0 km/h
117 24-05-2011 23:19:03 12 C 4.37 g/m*3 12 C 0 km/h
118 24-05-2011 23:31:03 11.8 C 4.53 g/m*3 11.8 C 0 km/h
119 24-05-2011 23:43:03 11 C 4.5 g/m*3 11 C 0 km/h
120 24-05-2011 23:55:03 10.1 C 4.73 g/m*3 10.1 C 0 km/h
121 25-05-2011 00:07:03 10.3 C 4.69 g/m*3 10.3 C 0 km/h
122 25-05-2011 00:19:03 9.8 C 4.73 g/m*3 9.8 C 0 km/h
123 25-05-2011 00:31:03 9.6 C 4.76 g/m*3 9.6 C 0 km/h
124 25-05-2011 00:43:03 9.4 C 4.61 g/m*3 9.4 C 0 km/h
125 25-05-2011 00:55:03 9.8 C 4.64 g/m*3 9.8 C 0 km/h
Sensor: Nr:Datum:Temp:Abs-Feuchte:Windchill:Wind:
Aussen-T/F 126 25-05-2011 01:07:03 9.7 C 4.7 g/m*3 9.7 C 0 km/h
127 25-05-2011 01:19:03 9 C 4.67 g/m*3 9 C 0 km/h
128 25-05-2011 01:31:03 8.5 C 4.7 g/m*3 8.5 C 0 km/h
129 25-05-2011 01:43:04 8.3 C 4.8 g/m*3 8.3 C 0 km/h
130 25-05-2011 01:55:04 8.1 C 4.83 g/m*3 8.1 C 0 km/h
131 25-05-2011 02:07:04 7.8 C 4.82 g/m*3 7.8 C 0 km/h
132 25-05-2011 02:19:04 7.4 C 4.53 g/m*3 7.4 C 0 km/h
133 25-05-2011 02:31:04 7.2 C 4.79 g/m*3 7.2 C 0 km/h
134 25-05-2011 02:43:04 7.1 C 4.84 g/m*3 7.1 C 0 km/h
135 25-05-2011 02:55:04 7.2 C 4.95 g/m*3 7.2 C 0 km/h
136 25-05-2011 03:07:04 6.5 C 4.87 g/m*3 6.5 C 0 km/h
137 25-05-2011 03:19:04 5.8 C 4.8 g/m*3 5.8 C 0 km/h
138 25-05-2011 03:31:04 5.5 C 4.78 g/m*3 5.5 C 0 km/h
139 25-05-2011 03:43:04 5.4 C 4.95 g/m*3 5.4 C 0 km/h
140 25-05-2011 03:55:04 5 C 4.82 g/m*3 5 C 0 km/h
141 25-05-2011 04:07:04 4.9 C 4.93 g/m*3 4.9 C 0 km/h
142 25-05-2011 04:19:04 4.7 C 4.93 g/m*3 4.7 C 0 km/h
143 25-05-2011 04:31:04 4.7 C 5 g/m*3 4.7 C 0 km/h
144 25-05-2011 04:43:04 4.4 C 4.96 g/m*3 4.4 C 0 km/h
145 25-05-2011 04:55:04 4.2 C 4.96 g/m*3 4.2 C 0 km/h
146 25-05-2011 05:07:04 4 C 4.9 g/m*3 4 C 0 km/h
147 25-05-2011 05:19:04 3.8 C 4.96 g/m*3 3.8 C 0 km/h
148 25-05-2011 05:31:04 3.7 C 5.05 g/m*3 3.7 C 0 km/h
149 25-05-2011 05:43:04 3.6 C 5.01 g/m*3 3.6 C 0 km/h
150 25-05-2011 05:55:05 3.6 C 5.08 g/m*3 3.6 C 0 km/h
Sensor: Nr:Datum:Temp:Abs-Feuchte:Windchill:Wind:
Aussen-T/F 151 25-05-2011 06:07:05 3.7 C 5.17 g/m*3 3.7 C 0 km/h
152 25-05-2011 06:19:05 3.8 C 5.27 g/m*3 3.8 C 0 km/h
153 25-05-2011 06:31:05 3.8 C 5.27 g/m*3 3.8 C 0 km/h
154 25-05-2011 06:43:05 3.9 C 5.31 g/m*3 3.9 C 0 km/h
155 25-05-2011 06:55:05 4 C 5.34 g/m*3 4 C 0 km/h
156 25-05-2011 07:07:05 4.2 C 5.41 g/m*3 4.2 C 0 km/h
157 25-05-2011 07:19:05 4.1 C 5.38 g/m*3 4.1 C 0 km/h
158 25-05-2011 07:31:03 4.4 C 5.55 g/m*3 4.4 C 0 km/h
159 25-05-2011 07:43:03 4.6 C 5.62 g/m*3 4.6 C 0 km/h
160 25-05-2011 07:55:02 5 C 5.71 g/m*3 5 C 0 km/h
161 25-05-2011 08:07:02 5.4 C 5.93 g/m*3 5.4 C 0 km/h
162 25-05-2011 08:19:02 5.7 C 5.98 g/m*3 5.7 C 0 km/h
163 25-05-2011 08:31:02 6.1 C 6.06 g/m*3 6.1 C 0 km/h
164 25-05-2011 08:43:02 6.6 C 6.27 g/m*3 6.6 C 0 km/h
165 25-05-2011 08:55:02 7.3 C 6.4 g/m*3 7.3 C 0 km/h
166 25-05-2011 09:07:03 7.9 C 6.57 g/m*3 7.9 C 0 km/h
167 25-05-2011 09:19:02 8.4 C 6.53 g/m*3 8.4 C 0 km/h
168 25-05-2011 09:31:02 9.3 C 6.47 g/m*3 9.3 C 0 km/h
169 25-05-2011 09:43:03 10 C 6.3 g/m*3 10 C 0 km/h
170 25-05-2011 09:55:01 10.7 C 6.58 g/m*3 10.7 C 0 km/h
171 25-05-2011 10:07:02 11.5 C 6.4 g/m*3 11.5 C 0 km/h
172 25-05-2011 10:19:01 12.9 C 5.86 g/m*3 12.9 C 0 km/h
173 25-05-2011 10:31:01 14.5 C 4.85 g/m*3 14.5 C 0 km/h
174 25-05-2011 10:43:01 14.8 C 4.18 g/m*3 14.8 C 0 km/h
175 25-05-2011 10:55:01 15.5 C 3.7 g/m*3 15.5 C 0 km/h
Sensor: Nr:Datum:Temp:Abs-Feuchte:Windchill:Wind:
Aussen-T/F 176 25-05-2011 11:07:02 16.1 C 3.56 g/m*3 16.1 C 0 km/h
177 25-05-2011 11:19:02 16.5 C 3.09 g/m*3 16.5 C 0 km/h
178 25-05-2011 11:31:01 16.7 C 3.27 g/m*3 16.7 C 0 km/h
179 25-05-2011 11:43:01 16.6 C 3.25 g/m*3 16.6 C 0 km/h
180 25-05-2011 11:55:01 17 C 2.89 g/m*3 17 C 0 km/h
181 25-05-2011 12:07:02 17 C 2.89 g/m*3 17 C 0 km/h
182 25-05-2011 12:19:01 17.6 C 3.15 g/m*3 17.6 C 0 km/h
183 25-05-2011 12:31:01 17.6 C 3 g/m*3 17.6 C 0 km/h
184 25-05-2011 12:43:01 17.8 C 3.04 g/m*3 17.8 C 0 km/h
185 25-05-2011 12:55:01 18.3 C 3.13 g/m*3 18.3 C 0 km/h
186 25-05-2011 13:07:01 18.6 C 3.18 g/m*3 18.6 C 0 km/h
187 25-05-2011 13:19:02 19.2 C 3.3 g/m*3 19.2 C 0 km/h
188 25-05-2011 13:31:01 26.1 C 4.9 g/m*3 26.1 C 0 km/h
189 25-05-2011 13:43:01 26.9 C 5.12 g/m*3 26.9 C 0 km/h
190 25-05-2011 13:55:01 27.8 C 5.38 g/m*3 27.8 C 0 km/h
191 25-05-2011 14:07:01 28.4 C 5.56 g/m*3 28.4 C 0 km/h
192 25-05-2011 14:19:02 28.3 C 5.53 g/m*3 28.3 C 0 km/h
193 25-05-2011 14:31:01 29 C 5.74 g/m*3 29 C 0 km/h
194 25-05-2011 14:43:01 30.3 C 6.16 g/m*3 30.3 C 0 km/h
195 25-05-2011 14:55:02 30.3 C 6.16 g/m*3 30.3 C 0 km/h
196 25-05-2011 15:07:02 30.6 C 6.26 g/m*3 30.6 C 0 km/h
197 25-05-2011 15:19:02 31.4 C 6.54 g/m*3 31.4 C 0 km/h
198 25-05-2011 15:31:02 30.7 C 6.3 g/m*3 30.7 C 0 km/h
199 25-05-2011 15:43:02 29.4 C 5.87 g/m*3 29.4 C 0 km/h
200 25-05-2011 15:55:01 31 C 6.4 g/m*3 31 C 0 km/h
Sensor: Nr:Datum:Temp:Abs-Feuchte:Windchill:Wind:
Aussen-T/F 201 25-05-2011 16:07:02 30.6 C 6.26 g/m*3 30.6 C 0 km/h
202 25-05-2011 16:19:02 30.7 C 6.3 g/m*3 30.7 C 0 km/h
203 25-05-2011 16:31:02 31 C 6.4 g/m*3 31 C 0 km/h
204 25-05-2011 16:43:02 30.3 C 6.16 g/m*3 30.3 C 0 km/h
205 25-05-2011 16:55:02 30.9 C 6.37 g/m*3 30.9 C 0 km/h
206 25-05-2011 17:07:02 30.9 C 6.37 g/m*3 30.9 C 0 km/h
207 25-05-2011 17:19:02 30.1 C 6.1 g/m*3 30.1 C 0 km/h
208 25-05-2011 17:31:03 29.7 C 5.97 g/m*3 29.7 C 0 km/h
209 25-05-2011 17:43:03 27.5 C 5.29 g/m*3 27.5 C 0 km/h
210 25-05-2011 17:55:02 30.2 C 6.13 g/m*3 30.2 C 0 km/h
211 25-05-2011 18:07:01 30 C 6.06 g/m*3 30 C 0 km/h
212 25-05-2011 18:19:02 29 C 5.74 g/m*3 29 C 0 km/h
213 25-05-2011 18:31:02 30.6 C 6.26 g/m*3 30.6 C 0 km/h
214 25-05-2011 18:43:02 29.9 C 6.03 g/m*3 29.9 C 0 km/h
215 25-05-2011 18:55:02 27.5 C 5.29 g/m*3 27.5 C 0 km/h
216 25-05-2011 19:07:03 29.2 C 5.81 g/m*3 29.2 C 0 km/h
217 25-05-2011 19:19:02 28.9 C 5.71 g/m*3 28.9 C 0 km/h
218 25-05-2011 19:31:02 27.8 C 5.38 g/m*3 27.8 C 0 km/h
219 25-05-2011 19:43:03 24.5 C 4.48 g/m*3 24.5 C 0 km/h
220 25-05-2011 19:55:01 21.5 C 3.77 g/m*3 21.5 C 0 km/h
221 25-05-2011 20:07:02 20.1 C 3.82 g/m*3 20.1 C 0 km/h
222 25-05-2011 20:19:01 19.1 C 4.26 g/m*3 19.1 C 0 km/h
223 25-05-2011 20:31:02 18.1 C 4.17 g/m*3 18.1 C 0 km/h
224 25-05-2011 20:43:02 17.5 C 4.03 g/m*3 17.5 C 0 km/h
225 25-05-2011 20:55:01 16.7 C 4.26 g/m*3 16.7 C 0 km/h
Sensor: Nr:Datum:Temp:Abs-Feuchte:Windchill:Wind:
Aussen-T/F 226 25-05-2011 21:07:02 16 C 3.68 g/m*3 16 C 0 km/h
227 25-05-2011 21:19:02 15.4 C 3.55 g/m*3 15.4 C 0 km/h
228 25-05-2011 21:31:01 14.9 C 3.44 g/m*3 14.9 C 0 km/h
229 25-05-2011 21:43:01 14.8 C 3.42 g/m*3 14.8 C 0 km/h
230 25-05-2011 21:55:01 14 C 3.62 g/m*3 14 C 0 km/h
231 25-05-2011 22:07:02 13.3 C 3.7 g/m*3 13.3 C 0 km/h
232 25-05-2011 22:19:01 12.6 C 3.87 g/m*3 12.6 C 0 km/h
233 25-05-2011 22:31:02 12.1 C 3.86 g/m*3 12.1 C 0 km/h
234 25-05-2011 22:43:02 11.7 C 4.18 g/m*3 11.7 C 0 km/h
235 25-05-2011 22:56:03 11.2 C 3.85 g/m*3 11.2 C 0 km/h
236 25-05-2011 23:08:04 10.8 C 4.15 g/m*3 10.8 C 0 km/h
237 25-05-2011 23:20:04 10.4 C 4.05 g/m*3 10.4 C 0 km/h
238 25-05-2011 23:32:04 10.1 C 3.97 g/m*3 10.1 C 0 km/h
239 25-05-2011 23:44:04 9.8 C 4.18 g/m*3 9.8 C 0 km/h
240 25-05-2011 23:56:04 9.5 C 4.1 g/m*3 9.5 C 0 km/h
241 26-05-2011 00:08:04 9.3 C 4.31 g/m*3 9.3 C 0 km/h
242 26-05-2011 00:20:04 9.2 C 4.38 g/m*3 9.2 C 0 km/h
243 26-05-2011 00:32:04 8.9 C 4.56 g/m*3 8.9 C 0 km/h
244 26-05-2011 00:44:04 8.6 C 4.47 g/m*3 8.6 C 0 km/h
245 26-05-2011 00:56:04 8.4 C 4.67 g/m*3 8.4 C 0 km/h
246 26-05-2011 01:08:04 8.1 C 4.66 g/m*3 8.1 C 0 km/h
247 26-05-2011 01:20:04 8 C 4.55 g/m*3 8 C 0 km/h
248 26-05-2011 01:32:04 7.8 C 4.65 g/m*3 7.8 C 0 km/h
249 26-05-2011 01:44:04 7.7 C 4.7 g/m*3 7.7 C 0 km/h
250 26-05-2011 01:56:04 7.5 C 4.88 g/m*3 7.5 C 0 km/h
Sensor: Nr:Datum:Temp:Abs-Feuchte:Windchill:Wind:
Aussen-T/F 251 26-05-2011 02:08:04 7.5 C 5.04 g/m*3 7.5 C 0 km/h
252 26-05-2011 02:20:04 7.4 C 4.85 g/m*3 7.4 C 0 km/h
253 26-05-2011 02:32:04 7.1 C 4.76 g/m*3 7.1 C 0 km/h
254 26-05-2011 02:44:04 7.1 C 4.91 g/m*3 7.1 C 0 km/h
255 26-05-2011 02:56:04 7 C 4.88 g/m*3 7 C 0 km/h
256 26-05-2011 03:08:04 7 C 5.11 g/m*3 7 C 0 km/h
257 26-05-2011 03:20:05 6.9 C 5.16 g/m*3 6.9 C 0 km/h
258 26-05-2011 03:32:05 6.9 C 5.08 g/m*3 6.9 C 0 km/h
259 26-05-2011 03:44:05 6.6 C 5.13 g/m*3 6.6 C 0 km/h
260 26-05-2011 03:56:05 6.6 C 5.13 g/m*3 6.6 C 0 km/h
261 26-05-2011 04:08:05 6.5 C 5.17 g/m*3 6.5 C 0 km/h
262 26-05-2011 04:20:05 6.2 C 5.15 g/m*3 6.2 C 0 km/h
263 26-05-2011 04:32:05 6.2 C 5.22 g/m*3 6.2 C 0 km/h
264 26-05-2011 04:44:05 5.9 C 5.19 g/m*3 5.9 C 0 km/h
265 26-05-2011 04:56:05 5.9 C 5.26 g/m*3 5.9 C 0 km/h
266 26-05-2011 05:08:05 5.8 C 5.23 g/m*3 5.8 C 0 km/h
267 26-05-2011 05:20:05 5.9 C 5.34 g/m*3 5.9 C 0 km/h
268 26-05-2011 05:32:05 5.8 C 5.23 g/m*3 5.8 C 0 km/h
269 26-05-2011 05:44:05 5.8 C 5.3 g/m*3 5.8 C 0 km/h
270 26-05-2011 05:56:05 5.7 C 5.27 g/m*3 5.7 C 0 km/h
271 26-05-2011 06:08:05 5.8 C 5.23 g/m*3 5.8 C 0 km/h
272 26-05-2011 06:20:05 5.9 C 5.34 g/m*3 5.9 C 0 km/h
273 26-05-2011 06:32:05 6 C 5.3 g/m*3 6 C 0 km/h
274 26-05-2011 06:44:05 6.3 C 5.55 g/m*3 6.3 C 0 km/h
275 26-05-2011 06:56:05 6.5 C 5.7 g/m*3 6.5 C 0 km/h
Sensor: Nr:Datum:Temp:Abs-Feuchte:Windchill:Wind:
Aussen-T/F 276 26-05-2011 07:08:05 6.7 C 5.7 g/m*3 6.7 C 0 km/h
277 26-05-2011 07:20:05 7 C 5.81 g/m*3 7 C 0 km/h
278 26-05-2011 07:32:03 7.1 C 5.85 g/m*3 7.1 C 0 km/h
279 26-05-2011 07:44:03 7.7 C 6.16 g/m*3 7.7 C 0 km/h
280 26-05-2011 07:56:02 8.1 C 6.16 g/m*3 8.1 C 0 km/h
281 26-05-2011 08:08:02 8.7 C 6.4 g/m*3 8.7 C 0 km/h
282 26-05-2011 08:20:02 9.5 C 6.37 g/m*3 9.5 C 0 km/h
283 26-05-2011 08:32:01 11 C 6.61 g/m*3 11 C 0 km/h
284 26-05-2011 08:44:01 13.7 C 6.99 g/m*3 13.7 C 0 km/h
285 26-05-2011 08:56:02 14.9 C 6.12 g/m*3 14.9 C 0 km/h
286 26-05-2011 09:08:01 15.5 C 6.61 g/m*3 15.5 C 0 km/h
287 26-05-2011 09:20:02 15.8 C 7.27 g/m*3 15.8 C 0 km/h
288 26-05-2011 09:32:01 15.6 C 6.92 g/m*3 15.6 C 0 km/h
289 26-05-2011 09:44:01 15.2 C 7.01 g/m*3 15.2 C 0 km/h
290 26-05-2011 09:56:03 15.8 C 6.87 g/m*3 15.8 C 0 km/h
291 26-05-2011 10:08:02 17 C 6.37 g/m*3 17 C 0 km/h
292 26-05-2011 10:20:02 18.4 C 6.61 g/m*3 18.4 C 0 km/h
293 26-05-2011 10:32:03 19.1 C 6.56 g/m*3 19.1 C 0 km/h
294 26-05-2011 10:44:03 20.5 C 7.12 g/m*3 20.5 C 0 km/h
295 26-05-2011 10:56:02 21.8 C 8.06 g/m*3 21.8 C 0 km/h
296 26-05-2011 11:08:01 21.4 C 8.06 g/m*3 21.4 C 0 km/h
297 26-05-2011 11:20:02 21.1 C 7.92 g/m*3 21.1 C 0 km/h
298 26-05-2011 11:32:02 20.4 C 7.96 g/m*3 20.4 C 0 km/h
299 26-05-2011 11:44:02 19.5 C 8.39 g/m*3 19.5 C 0 km/h
300 26-05-2011 11:56:02 23 C 7.19 g/m*3 23 C 0 km/h
Sensor: Nr:Datum:Temp:Abs-Feuchte:Windchill:Wind:
Aussen-T/F 301 26-05-2011 12:08:02 24.1 C 6.35 g/m*3 24.1 C 0 km/h
302 26-05-2011 12:20:02 24.9 C 5.49 g/m*3 24.9 C 0 km/h
303 26-05-2011 12:32:02 23.3 C 5.44 g/m*3 23.3 C 0 km/h
304 26-05-2011 12:44:02 23.8 C 5.38 g/m*3 23.8 C 0 km/h
305 26-05-2011 12:56:02 23.9 C 5.84 g/m*3 23.9 C 0 km/h
306 26-05-2011 13:08:02 24.4 C 5.79 g/m*3 24.4 C 0 km/h
307 26-05-2011 13:20:02 23.7 C 5.35 g/m*3 23.7 C 0 km/h
308 26-05-2011 13:32:02 24.6 C 5.18 g/m*3 24.6 C 0 km/h
309 26-05-2011 13:44:02 25.6 C 5 g/m*3 25.6 C 0 km/h
310 26-05-2011 13:56:01 27.5 C 5.29 g/m*3 27.5 C 0 km/h
311 26-05-2011 14:08:01 25.2 C 5.59 g/m*3 25.2 C 0 km/h
312 26-05-2011 14:20:02 25.5 C 5.21 g/m*3 25.5 C 0 km/h
313 26-05-2011 14:32:01 26.5 C 5.26 g/m*3 26.5 C 0 km/h
314 26-05-2011 14:44:01 28.2 C 5.5 g/m*3 28.2 C 0 km/h
315 26-05-2011 14:56:03 27.2 C 5.2 g/m*3 27.2 C 0 km/h
316 26-05-2011 15:08:02 27.7 C 5.35 g/m*3 27.7 C 0 km/h
317 26-05-2011 15:20:02 24.4 C 5.56 g/m*3 24.4 C 0 km/h
318 26-05-2011 15:32:02 23.3 C 5.44 g/m*3 23.3 C 0 km/h
319 26-05-2011 15:44:02 23.8 C 5.59 g/m*3 23.8 C 0 km/h
320 26-05-2011 15:56:02 23 C 4.73 g/m*3 23 C 0 km/h
321 26-05-2011 16:08:01 24.7 C 4.53 g/m*3 24.7 C 0 km/h
322 26-05-2011 16:20:02 24.4 C 4.45 g/m*3 24.4 C 0 km/h
323 26-05-2011 16:32:02 25.5 C 4.73 g/m*3 25.5 C 0 km/h
324 26-05-2011 16:44:02 25 C 4.6 g/m*3 25 C 0 km/h
325 26-05-2011 16:56:02 24.6 C 4.5 g/m*3 24.6 C 0 km/h
Sensor: Nr:Datum:Temp:Abs-Feuchte:Windchill:Wind:
Aussen-T/F 326 26-05-2011 17:08:01 25.5 C 4.73 g/m*3 25.5 C 0 km/h
327 26-05-2011 17:20:01 26 C 4.87 g/m*3 26 C 0 km/h
328 26-05-2011 17:32:02 24.6 C 4.5 g/m*3 24.6 C 0 km/h
329 26-05-2011 17:44:02 24.6 C 4.5 g/m*3 24.6 C 0 km/h
330 26-05-2011 17:56:02 23.5 C 4.23 g/m*3 23.5 C 0 km/h
331 26-05-2011 18:08:02 22.8 C 4.06 g/m*3 22.8 C 0 km/h
332 26-05-2011 18:20:01 23.8 C 4.3 g/m*3 23.8 C 0 km/h
333 26-05-2011 18:32:02 22.5 C 3.99 g/m*3 22.5 C 0 km/h
334 26-05-2011 18:44:03 21.2 C 4.08 g/m*3 21.2 C 0 km/h
335 26-05-2011 18:56:02 20.9 C 4.55 g/m*3 20.9 C 0 km/h
336 26-05-2011 19:08:02 21.3 C 4.66 g/m*3 21.3 C 0 km/h
337 26-05-2011 19:20:01 22 C 3.88 g/m*3 22 C 0 km/h
338 26-05-2011 19:32:02 21.2 C 3.89 g/m*3 21.2 C 0 km/h
339 26-05-2011 19:44:02 20 C 4.32 g/m*3 20 C 0 km/h
340 26-05-2011 19:56:02 19.7 C 4.58 g/m*3 19.7 C 0 km/h
341 26-05-2011 20:08:02 19.8 C 4.44 g/m*3 19.8 C 0 km/h
342 26-05-2011 20:20:02 19.7 C 4.58 g/m*3 19.7 C 0 km/h
343 26-05-2011 20:32:02 19.1 C 4.26 g/m*3 19.1 C 0 km/h
344 26-05-2011 20:44:02 18.9 C 4.54 g/m*3 18.9 C 0 km/h
345 26-05-2011 20:56:02 18.6 C 4.46 g/m*3 18.6 C 0 km/h
346 26-05-2011 21:08:02 18.3 C 4.53 g/m*3 18.3 C 0 km/h
347 26-05-2011 21:20:02 17.9 C 4.28 g/m*3 17.9 C 0 km/h
348 26-05-2011 21:32:01 17.3 C 4.42 g/m*3 17.3 C 0 km/h
349 26-05-2011 21:44:01 17 C 4.05 g/m*3 17 C 0 km/h
350 26-05-2011 21:56:02 16.8 C 4.15 g/m*3 16.8 C 0 km/h
Sensor: Nr:Datum:Temp:Abs-Feuchte:Windchill:Wind:
Aussen-T/F 351 26-05-2011 22:08:02 16.4 C 4.19 g/m*3 16.4 C 0 km/h
352 26-05-2011 22:20:01 16.2 C 4.14 g/m*3 16.2 C 0 km/h
353 26-05-2011 22:33:03 16.1 C 4.25 g/m*3 16.1 C 0 km/h
354 26-05-2011 22:45:03 15.8 C 4.44 g/m*3 15.8 C 0 km/h
355 26-05-2011 22:57:03 15.9 C 4.47 g/m*3 15.9 C 0 km/h
356 26-05-2011 23:09:03 15.8 C 4.58 g/m*3 15.8 C 0 km/h
357 26-05-2011 23:21:03 15.9 C 4.6 g/m*3 15.9 C 0 km/h
358 26-05-2011 23:33:03 15.8 C 4.58 g/m*3 15.8 C 0 km/h
359 26-05-2011 23:45:03 15.9 C 4.47 g/m*3 15.9 C 0 km/h
360 26-05-2011 23:57:04 15.9 C 4.47 g/m*3 15.9 C 0 km/h
361 27-05-2011 00:09:04 15.9 C 4.47 g/m*3 15.9 C 0 km/h
362 27-05-2011 00:21:04 15.6 C 4.65 g/m*3 15.6 C 0 km/h
363 27-05-2011 00:33:04 15.5 C 4.63 g/m*3 15.5 C 0 km/h
364 27-05-2011 00:45:04 15.6 C 4.65 g/m*3 15.6 C 0 km/h
365 27-05-2011 00:57:04 15.7 C 4.68 g/m*3 15.7 C 0 km/h
366 27-05-2011 01:09:04 15.5 C 4.76 g/m*3 15.5 C 0 km/h
367 27-05-2011 01:21:04 15.5 C 4.76 g/m*3 15.5 C 0 km/h
368 27-05-2011 01:33:04 15.3 C 4.7 g/m*3 15.3 C 0 km/h
369 27-05-2011 01:45:04 15.2 C 4.8 g/m*3 15.2 C 0 km/h
370 27-05-2011 01:57:04 15.1 C 4.77 g/m*3 15.1 C 0 km/h
371 27-05-2011 02:09:04 14.2 C 4.88 g/m*3 14.2 C 0 km/h
372 27-05-2011 02:21:04 13.6 C 5.18 g/m*3 13.6 C 0 km/h
373 27-05-2011 02:33:04 13.2 C 5.17 g/m*3 13.2 C 0 km/h
374 27-05-2011 02:45:04 14.1 C 5.1 g/m*3 14.1 C 0 km/h
375 27-05-2011 02:57:04 13.2 C 5.17 g/m*3 13.2 C 0 km/h
Sensor: Nr:Datum:Temp:Abs-Feuchte:Windchill:Wind:
Aussen-T/F 376 27-05-2011 03:09:04 12.8 C 5.38 g/m*3 12.8 C 0 km/h
377 27-05-2011 03:21:04 12.6 C 5.64 g/m*3 12.6 C 0 km/h
378 27-05-2011 03:33:04 13.2 C 5.28 g/m*3 13.2 C 0 km/h
379 27-05-2011 03:45:04 13.5 C 5.26 g/m*3 13.5 C 0 km/h
380 27-05-2011 03:57:05 12.7 C 5.45 g/m*3 12.7 C 0 km/h
381 27-05-2011 04:09:05 11.8 C 5.68 g/m*3 11.8 C 0 km/h
382 27-05-2011 04:21:05 12.2 C 5.61 g/m*3 12.2 C 0 km/h
383 27-05-2011 04:33:05 12.9 C 5.52 g/m*3 12.9 C 0 km/h
384 27-05-2011 04:45:05 12.7 C 5.45 g/m*3 12.7 C 0 km/h
385 27-05-2011 04:57:05 12.1 C 5.47 g/m*3 12.1 C 0 km/h
386 27-05-2011 05:09:05 11.8 C 5.68 g/m*3 11.8 C 0 km/h
387 27-05-2011 05:21:05 11.3 C 5.71 g/m*3 11.3 C 0 km/h
388 27-05-2011 05:33:05 12.1 C 5.68 g/m*3 12.1 C 0 km/h
389 27-05-2011 05:45:05 12.1 C 5.68 g/m*3 12.1 C 0 km/h
390 27-05-2011 05:57:05 12.2 C 5.72 g/m*3 12.2 C 0 km/h
391 27-05-2011 06:09:05 12.5 C 5.83 g/m*3 12.5 C 0 km/h
392 27-05-2011 06:21:05 12.6 C 5.86 g/m*3 12.6 C 0 km/h
393 27-05-2011 06:33:05 12.8 C 5.82 g/m*3 12.8 C 0 km/h
394 27-05-2011 06:45:05 12.9 C 5.86 g/m*3 12.9 C 0 km/h
395 27-05-2011 06:57:05 13 C 5.78 g/m*3 13 C 0 km/h
396 27-05-2011 07:09:05 13.2 C 5.86 g/m*3 13.2 C 0 km/h
397 27-05-2011 07:21:02 13.2 C 5.86 g/m*3 13.2 C 0 km/h
398 27-05-2011 07:33:02 13.3 C 5.89 g/m*3 13.3 C 0 km/h
399 27-05-2011 07:45:02 13.6 C 5.88 g/m*3 13.6 C 0 km/h
400 27-05-2011 07:57:02 13.5 C 5.85 g/m*3 13.5 C 0 km/h
Sensor: Nr:Datum:Temp:Abs-Feuchte:Windchill:Wind:
Aussen-T/F 401 27-05-2011 08:09:02 13.7 C 6.04 g/m*3 13.7 C 0 km/h
402 27-05-2011 08:21:02 14.1 C 5.95 g/m*3 14.1 C 0 km/h
403 27-05-2011 08:33:02 14.5 C 5.97 g/m*3 14.5 C 0 km/h
404 27-05-2011 08:45:02 14.8 C 5.83 g/m*3 14.8 C 0 km/h
405 27-05-2011 08:57:02 15.1 C 5.93 g/m*3 15.1 C 0 km/h
406 27-05-2011 09:09:02 14.9 C 5.86 g/m*3 14.9 C 0 km/h
407 27-05-2011 09:21:02 15 C 5.77 g/m*3 15 C 0 km/h
408 27-05-2011 09:33:02 14.6 C 5.88 g/m*3 14.6 C 0 km/h
409 27-05-2011 09:45:01 14.3 C 5.65 g/m*3 14.3 C 0 km/h
410 27-05-2011 09:57:01 13.9 C 5.87 g/m*3 13.9 C 0 km/h
411 27-05-2011 10:09:01 13.5 C 5.5 g/m*3 13.5 C 0 km/h
412 27-05-2011 10:21:01 13.7 C 5.68 g/m*3 13.7 C 0 km/h
413 27-05-2011 10:33:02 13.7 C 5.57 g/m*3 13.7 C 0 km/h
414 27-05-2011 10:45:02 14 C 5.67 g/m*3 14 C 0 km/h
415 27-05-2011 10:57:02 14.2 C 5.62 g/m*3 14.2 C 0 km/h
416 27-05-2011 11:09:02 14.2 C 5.49 g/m*3 14.2 C 0 km/h
417 27-05-2011 11:21:01 16.1 C 5.62 g/m*3 16.1 C 0 km/h
418 27-05-2011 11:33:02 15.6 C 5.59 g/m*3 15.6 C 0 km/h
419 27-05-2011 11:45:02 14.8 C 5.7 g/m*3 14.8 C 0 km/h
420 27-05-2011 11:57:02 14.3 C 5.77 g/m*3 14.3 C 0 km/h
421 27-05-2011 12:09:02 14.6 C 5.88 g/m*3 14.6 C 0 km/h
422 27-05-2011 12:21:01 14.8 C 5.83 g/m*3 14.8 C 0 km/h
423 27-05-2011 12:33:02 15.3 C 6.01 g/m*3 15.3 C 0 km/h
424 27-05-2011 12:45:01 16.1 C 5.62 g/m*3 16.1 C 0 km/h
425 27-05-2011 12:57:01 15.8 C 5.25 g/m*3 15.8 C 0 km/h
Sensor: Nr:Datum:Temp:Abs-Feuchte:Windchill:Wind:
Aussen-T/F 426 27-05-2011 13:09:02 15.2 C 5.19 g/m*3 15.2 C 0 km/h
427 27-05-2011 13:21:02 15.3 C 5.22 g/m*3 15.3 C 0 km/h
428 27-05-2011 13:33:01 16.4 C 5.16 g/m*3 16.4 C 0 km/h
429 27-05-2011 13:45:02 17.1 C 4.95 g/m*3 17.1 C 0 km/h
430 27-05-2011 13:57:02 17.7 C 4.68 g/m*3 17.7 C 0 km/h
431 27-05-2011 14:09:01 20.6 C 5.19 g/m*3 20.6 C 0 km/h
432 27-05-2011 14:21:02 20.6 C 4.47 g/m*3 20.6 C 0 km/h
433 27-05-2011 14:33:01 17.5 C 4.47 g/m*3 17.5 C 0 km/h
434 27-05-2011 14:45:02 17.2 C 4.69 g/m*3 17.2 C 0 km/h
435 27-05-2011 14:57:02 16.6 C 4.94 g/m*3 16.6 C 0 km/h
436 27-05-2011 15:09:02 16.7 C 5.12 g/m*3 16.7 C 0 km/h
437 27-05-2011 15:21:02 16.1 C 5.35 g/m*3 16.1 C 0 km/h
438 27-05-2011 15:33:03 16.1 C 5.48 g/m*3 16.1 C 0 km/h
439 27-05-2011 15:45:02 18 C 5.53 g/m*3 18 C 0 km/h
440 27-05-2011 15:57:02 18 C 5.38 g/m*3 18 C 0 km/h
441 27-05-2011 16:09:02 16.8 C 5.15 g/m*3 16.8 C 0 km/h
442 27-05-2011 16:21:01 16.4 C 5.16 g/m*3 16.4 C 0 km/h
443 27-05-2011 16:33:02 16.1 C 5.35 g/m*3 16.1 C 0 km/h
444 27-05-2011 16:45:02 15.9 C 5.42 g/m*3 15.9 C 0 km/h
445 27-05-2011 16:57:02 15.6 C 5.32 g/m*3 15.6 C 0 km/h
446 27-05-2011 17:09:02 15.8 C 5.38 g/m*3 15.8 C 0 km/h
447 27-05-2011 17:21:02 16.6 C 5.51 g/m*3 16.6 C 0 km/h
448 27-05-2011 17:33:02 16.2 C 5.38 g/m*3 16.2 C 0 km/h
449 27-05-2011 17:45:02 15.6 C 5.59 g/m*3 15.6 C 0 km/h
450 27-05-2011 17:57:02 15.7 C 5.62 g/m*3 15.7 C 0 km/h
Sensor: Nr:Datum:Temp:Abs-Feuchte:Windchill:Wind:
Aussen-T/F 451 27-05-2011 18:09:02 16 C 5.45 g/m*3 16 C 0 km/h
452 27-05-2011 18:21:02 16.2 C 5.52 g/m*3 16.2 C 0 km/h
453 27-05-2011 18:33:02 18 C 5.68 g/m*3 18 C 0 km/h
454 27-05-2011 18:45:02 17.6 C 5.4 g/m*3 17.6 C 0 km/h
455 27-05-2011 18:57:02 17 C 5.35 g/m*3 17 C 0 km/h
456 27-05-2011 19:09:02 19.1 C 5.08 g/m*3 19.1 C 0 km/h
457 27-05-2011 19:21:02 19.4 C 5.01 g/m*3 19.4 C 0 km/h
458 27-05-2011 19:33:02 17 C 5.06 g/m*3 17 C 0 km/h
459 27-05-2011 19:45:02 16.6 C 5.23 g/m*3 16.6 C 0 km/h
460 27-05-2011 19:57:02 16.6 C 5.37 g/m*3 16.6 C 0 km/h
461 27-05-2011 20:09:02 15.4 C 5.39 g/m*3 15.4 C 0 km/h
462 27-05-2011 20:21:02 15.4 C 5.52 g/m*3 15.4 C 0 km/h
463 27-05-2011 20:33:01 15.1 C 5.68 g/m*3 15.1 C 0 km/h
464 27-05-2011 20:45:02 14.3 C 5.65 g/m*3 14.3 C 0 km/h
465 27-05-2011 20:57:02 13.3 C 6.24 g/m*3 13.3 C 0 km/h
466 27-05-2011 21:09:01 12 C 6.18 g/m*3 12 C 0 km/h
467 27-05-2011 21:21:01 11.7 C 6.38 g/m*3 11.7 C 0 km/h
468 27-05-2011 21:33:02 11.9 C 6.46 g/m*3 11.9 C 0 km/h
469 27-05-2011 21:45:02 12.3 C 6.3 g/m*3 12.3 C 0 km/h
470 27-05-2011 21:57:02 12.5 C 6.27 g/m*3 12.5 C 0 km/h
471 27-05-2011 22:09:02 12.4 C 6.23 g/m*3 12.4 C 0 km/h
472 27-05-2011 22:21:02 12.4 C 6.23 g/m*3 12.4 C 0 km/h
473 27-05-2011 22:33:02 12.4 C 6.23 g/m*3 12.4 C 0 km/h
474 27-05-2011 22:45:02 12.5 C 6.16 g/m*3 12.5 C 0 km/h
475 27-05-2011 22:57:02 12.4 C 6.12 g/m*3 12.4 C 0 km/h
Sensor: Nr:Datum:Temp:Abs-Feuchte:Windchill:Wind:
Aussen-T/F 476 27-05-2011 23:10:03 12.3 C 6.19 g/m*3 12.3 C 0 km/h
477 27-05-2011 23:22:03 12.2 C 6.15 g/m*3 12.2 C 0 km/h
478 27-05-2011 23:34:03 11.9 C 6.35 g/m*3 11.9 C 0 km/h
479 27-05-2011 23:46:03 11.3 C 6.22 g/m*3 11.3 C 0 km/h
480 27-05-2011 23:58:03 10.8 C 6.23 g/m*3 10.8 C 0 km/h
481 28-05-2011 00:10:03 10.2 C 6.09 g/m*3 10.2 C 0 km/h
482 28-05-2011 00:22:03 9.7 C 6.27 g/m*3 9.7 C 0 km/h
483 28-05-2011 00:34:03 9.1 C 6.03 g/m*3 9.1 C 0 km/h
484 28-05-2011 00:46:03 8.6 C 6.19 g/m*3 8.6 C 0 km/h
485 28-05-2011 00:58:03 8.6 C 6.36 g/m*3 8.6 C 0 km/h
486 28-05-2011 01:10:03 8 C 6.12 g/m*3 8 C 0 km/h
487 28-05-2011 01:22:03 8.2 C 6.36 g/m*3 8.2 C 0 km/h
488 28-05-2011 01:34:03 8.1 C 6.32 g/m*3 8.1 C 0 km/h
489 28-05-2011 01:46:03 7.8 C 6.37 g/m*3 7.8 C 0 km/h
490 28-05-2011 01:58:03 7.6 C 6.36 g/m*3 7.6 C 0 km/h
491 28-05-2011 02:10:03 7 C 6.2 g/m*3 7 C 0 km/h
492 28-05-2011 02:22:03 7 C 6.28 g/m*3 7 C 0 km/h
493 28-05-2011 02:34:03 7 C 6.35 g/m*3 7 C 0 km/h
494 28-05-2011 02:46:03 6.8 C 6.42 g/m*3 6.8 C 0 km/h
495 28-05-2011 02:58:03 6.7 C 6.38 g/m*3 6.7 C 0 km/h
496 28-05-2011 03:10:03 6.6 C 6.42 g/m*3 6.6 C 0 km/h
497 28-05-2011 03:22:04 6.2 C 6.18 g/m*3 6.2 C 0 km/h
498 28-05-2011 03:34:04 5.9 C 6.2 g/m*3 5.9 C 0 km/h
499 28-05-2011 03:46:04 6 C 6.24 g/m*3 6 C 0 km/h
500 28-05-2011 03:58:04 6.2 C 6.4 g/m*3 6.2 C 0 km/h
Sensor: Nr:Datum:Temp:Abs-Feuchte:Windchill:Wind:
Aussen-T/F 501 28-05-2011 04:10:04 7.1 C 6.79 g/m*3 7.1 C 0 km/h
502 28-05-2011 04:22:04 7.5 C 6.88 g/m*3 7.5 C 0 km/h
503 28-05-2011 04:34:04 7.9 C 6.98 g/m*3 7.9 C 0 km/h
504 28-05-2011 04:46:04 8.1 C 6.74 g/m*3 8.1 C 0 km/h
505 28-05-2011 04:58:04 8 C 6.53 g/m*3 8 C 0 km/h
506 28-05-2011 05:10:04 8 C 6.45 g/m*3 8 C 0 km/h
507 28-05-2011 05:22:04 7.8 C 6.45 g/m*3 7.8 C 0 km/h
508 28-05-2011 05:34:04 8 C 6.45 g/m*3 8 C 0 km/h
509 28-05-2011 05:46:04 8.1 C 6.49 g/m*3 8.1 C 0 km/h
510 28-05-2011 05:58:04 8 C 6.45 g/m*3 8 C 0 km/h
511 28-05-2011 06:10:04 8.2 C 6.53 g/m*3 8.2 C 0 km/h
512 28-05-2011 06:22:04 8.2 C 6.53 g/m*3 8.2 C 0 km/h
513 28-05-2011 06:34:04 8.5 C 6.66 g/m*3 8.5 C 0 km/h
514 28-05-2011 06:46:04 8.8 C 6.61 g/m*3 8.8 C 0 km/h
515 28-05-2011 06:58:04 8.9 C 6.48 g/m*3 8.9 C 0 km/h
516 28-05-2011 07:10:04 9.3 C 6.56 g/m*3 9.3 C 0 km/h
517 28-05-2011 07:22:05 9.7 C 6.55 g/m*3 9.7 C 0 km/h
518 28-05-2011 07:34:05 9.9 C 6.44 g/m*3 9.9 C 0 km/h
519 28-05-2011 07:46:05 9.5 C 6.28 g/m*3 9.5 C 0 km/h
520 28-05-2011 07:58:05 9 C 6.26 g/m*3 9 C 0 km/h
521 28-05-2011 08:10:05 9 C 6.52 g/m*3 9 C 0 km/h
522 28-05-2011 08:22:05 9.4 C 6.87 g/m*3 9.4 C 0 km/h
523 28-05-2011 08:34:03 9.8 C 7.05 g/m*3 9.8 C 0 km/h
524 28-05-2011 08:46:02 10.3 C 7.09 g/m*3 10.3 C 0 km/h
525 28-05-2011 08:58:02 11.2 C 7.1 g/m*3 11.2 C 0 km/h
Sensor: Nr:Datum:Temp:Abs-Feuchte:Windchill:Wind:
Aussen-T/F 526 28-05-2011 09:10:02 12.4 C 6.99 g/m*3 12.4 C 0 km/h
527 28-05-2011 09:22:02 12.8 C 6.61 g/m*3 12.8 C 0 km/h
528 28-05-2011 09:34:02 13.9 C 6.35 g/m*3 13.9 C 0 km/h
529 28-05-2011 09:46:01 14.6 C 6.01 g/m*3 14.6 C 0 km/h
530 28-05-2011 09:58:01 14.8 C 5.7 g/m*3 14.8 C 0 km/h
531 28-05-2011 10:10:02 15.3 C 5.75 g/m*3 15.3 C 0 km/h
532 28-05-2011 10:22:02 15.4 C 5.39 g/m*3 15.4 C 0 km/h
533 28-05-2011 10:34:02 15.6 C 5.45 g/m*3 15.6 C 0 km/h
534 28-05-2011 10:46:02 15.7 C 5.08 g/m*3 15.7 C 0 km/h
535 28-05-2011 10:58:02 16.5 C 5.34 g/m*3 16.5 C 0 km/h
536 28-05-2011 11:10:02 16.6 C 5.09 g/m*3 16.6 C 0 km/h
537 28-05-2011 11:22:02 16.9 C 5.18 g/m*3 16.9 C 0 km/h
538 28-05-2011 11:34:01 17.2 C 5.27 g/m*3 17.2 C 0 km/h
539 28-05-2011 11:46:02 18 C 5.53 g/m*3 18 C 0 km/h
540 28-05-2011 11:58:02 19.1 C 5.41 g/m*3 19.1 C 0 km/h
541 28-05-2011 12:10:01 18.5 C 5.38 g/m*3 18.5 C 0 km/h
542 28-05-2011 12:22:01 18.6 C 5.25 g/m*3 18.6 C 0 km/h
543 28-05-2011 12:34:02 19.2 C 5.11 g/m*3 19.2 C 0 km/h
544 28-05-2011 12:46:02 19.4 C 5.17 g/m*3 19.4 C 0 km/h
545 28-05-2011 12:58:02 19.7 C 5.09 g/m*3 19.7 C 0 km/h
546 28-05-2011 13:10:02 19.5 C 5.03 g/m*3 19.5 C 0 km/h
547 28-05-2011 13:22:02 20.5 C 4.98 g/m*3 20.5 C 0 km/h
548 28-05-2011 13:34:02 21.9 C 4.82 g/m*3 21.9 C 0 km/h
549 28-05-2011 13:46:02 23.6 C 4.25 g/m*3 23.6 C 0 km/h
550 28-05-2011 13:58:02 23.1 C 4.13 g/m*3 23.1 C 0 km/h
Sensor: Nr:Datum:Temp:Abs-Feuchte:Windchill:Wind:
Aussen-T/F 551 28-05-2011 14:10:02 24.9 C 4.58 g/m*3 24.9 C 0 km/h
552 28-05-2011 14:22:02 23.5 C 4.44 g/m*3 23.5 C 0 km/h
553 28-05-2011 14:34:02 24.2 C 4.4 g/m*3 24.2 C 0 km/h
554 28-05-2011 14:46:02 24.3 C 4.43 g/m*3 24.3 C 0 km/h
555 28-05-2011 14:58:02 25.2 C 4.66 g/m*3 25.2 C 0 km/h
556 28-05-2011 15:10:02 22.4 C 3.97 g/m*3 22.4 C 0 km/h
557 28-05-2011 15:22:02 22.7 C 4.04 g/m*3 22.7 C 0 km/h
558 28-05-2011 15:34:02 21.7 C 3.82 g/m*3 21.7 C 0 km/h
559 28-05-2011 15:46:02 26.4 C 4.98 g/m*3 26.4 C 0 km/h
560 28-05-2011 15:58:02 22.7 C 4.24 g/m*3 22.7 C 0 km/h
561 28-05-2011 16:10:02 24 C 4.35 g/m*3 24 C 0 km/h
562 28-05-2011 16:22:03 23.9 C 4.33 g/m*3 23.9 C 0 km/h
563 28-05-2011 16:34:02 24.5 C 4.48 g/m*3 24.5 C 0 km/h
564 28-05-2011 16:46:02 26.2 C 4.92 g/m*3 26.2 C 0 km/h
565 28-05-2011 16:58:02 25 C 4.6 g/m*3 25 C 0 km/h
566 28-05-2011 17:10:02 24.6 C 4.5 g/m*3 24.6 C 0 km/h
567 28-05-2011 17:22:02 22.9 C 4.09 g/m*3 22.9 C 0 km/h
568 28-05-2011 17:34:02 25.4 C 4.71 g/m*3 25.4 C 0 km/h
569 28-05-2011 17:46:02 25.5 C 4.73 g/m*3 25.5 C 0 km/h
570 28-05-2011 17:58:02 24 C 4.35 g/m*3 24 C 0 km/h
571 28-05-2011 18:10:02 23.2 C 4.16 g/m*3 23.2 C 0 km/h
572 28-05-2011 18:22:02 23.8 C 4.3 g/m*3 23.8 C 0 km/h
573 28-05-2011 18:34:02 23.4 C 4.21 g/m*3 23.4 C 0 km/h
574 28-05-2011 18:46:01 22.4 C 4.17 g/m*3 22.4 C 0 km/h
575 28-05-2011 18:58:01 20.7 C 4.32 g/m*3 20.7 C 0 km/h
Sensor: Nr:Datum:Temp:Abs-Feuchte:Windchill:Wind:
Aussen-T/F 576 28-05-2011 19:10:02 21 C 4.58 g/m*3 21 C 0 km/h
577 28-05-2011 19:22:01 23.3 C 4.18 g/m*3 23.3 C 0 km/h
578 28-05-2011 19:34:02 20.6 C 4.3 g/m*3 20.6 C 0 km/h
579 28-05-2011 19:46:02 20 C 4.67 g/m*3 20 C 0 km/h
580 28-05-2011 19:58:02 20.3 C 4.57 g/m*3 20.3 C 0 km/h
581 28-05-2011 20:10:02 19.2 C 4.95 g/m*3 19.2 C 0 km/h
582 28-05-2011 20:22:02 19.2 C 4.62 g/m*3 19.2 C 0 km/h
583 28-05-2011 20:34:02 18.9 C 4.7 g/m*3 18.9 C 0 km/h
584 28-05-2011 20:46:02 18.5 C 4.75 g/m*3 18.5 C 0 km/h
585 28-05-2011 20:58:02 18.1 C 4.64 g/m*3 18.1 C 0 km/h
586 28-05-2011 21:10:01 17.8 C 4.86 g/m*3 17.8 C 0 km/h
587 28-05-2011 21:22:01 17.6 C 4.95 g/m*3 17.6 C 0 km/h
588 28-05-2011 21:34:02 17.5 C 4.92 g/m*3 17.5 C 0 km/h
589 28-05-2011 21:46:02 16.7 C 5.12 g/m*3 16.7 C 0 km/h
590 28-05-2011 21:58:02 15.7 C 5.35 g/m*3 15.7 C 0 km/h
591 28-05-2011 22:11:03 14.9 C 5.61 g/m*3 14.9 C 0 km/h
592 28-05-2011 22:23:03 14.6 C 5.63 g/m*3 14.6 C 0 km/h
593 28-05-2011 22:35:03 14.6 C 5.76 g/m*3 14.6 C 0 km/h
594 28-05-2011 22:47:03 14.8 C 5.83 g/m*3 14.8 C 0 km/h
595 28-05-2011 22:59:03 14.7 C 5.67 g/m*3 14.7 C 0 km/h
596 28-05-2011 23:11:03 14.4 C 5.81 g/m*3 14.4 C 0 km/h
597 28-05-2011 23:23:03 14.1 C 5.95 g/m*3 14.1 C 0 km/h
598 28-05-2011 23:35:03 14.3 C 5.77 g/m*3 14.3 C 0 km/h
599 28-05-2011 23:47:03 14 C 5.79 g/m*3 14 C 0 km/h
600 28-05-2011 23:59:03 13.9 C 6.11 g/m*3 13.9 C 0 km/h
Sensor: Nr:Datum:Temp:Abs-Feuchte:Windchill:Wind:
Aussen-T/F 601 29-05-2011 00:11:03 13.8 C 5.96 g/m*3 13.8 C 0 km/h
602 29-05-2011 00:23:03 13.6 C 6.12 g/m*3 13.6 C 0 km/h
603 29-05-2011 00:35:03 13 C 5.9 g/m*3 13 C 0 km/h
604 29-05-2011 00:47:03 12.7 C 6.23 g/m*3 12.7 C 0 km/h
605 29-05-2011 00:59:03 12.7 C 6.23 g/m*3 12.7 C 0 km/h
606 29-05-2011 01:11:03 12.6 C 6.08 g/m*3 12.6 C 0 km/h
607 29-05-2011 01:23:04 12.9 C 6.42 g/m*3 12.9 C 0 km/h
608 29-05-2011 01:35:04 13 C 6.12 g/m*3 13 C 0 km/h
609 29-05-2011 01:47:04 13 C 6.12 g/m*3 13 C 0 km/h
610 29-05-2011 01:59:04 12.9 C 6.31 g/m*3 12.9 C 0 km/h
611 29-05-2011 02:11:04 13.1 C 6.16 g/m*3 13.1 C 0 km/h
612 29-05-2011 02:23:04 13.2 C 6.32 g/m*3 13.2 C 0 km/h
613 29-05-2011 02:35:04 13.2 C 6.32 g/m*3 13.2 C 0 km/h
614 29-05-2011 02:47:04 13.2 C 6.43 g/m*3 13.2 C 0 km/h
615 29-05-2011 02:59:04 13.1 C 6.28 g/m*3 13.1 C 0 km/h
616 29-05-2011 03:11:04 12.7 C 6.35 g/m*3 12.7 C 0 km/h
617 29-05-2011 03:23:04 12.4 C 6.34 g/m*3 12.4 C 0 km/h
618 29-05-2011 03:35:04 12.9 C 6.31 g/m*3 12.9 C 0 km/h
619 29-05-2011 03:47:04 13.2 C 6.2 g/m*3 13.2 C 0 km/h
620 29-05-2011 03:59:04 13.4 C 6.04 g/m*3 13.4 C 0 km/h
621 29-05-2011 04:11:04 13.3 C 6.01 g/m*3 13.3 C 0 km/h
622 29-05-2011 04:23:04 13.4 C 6.04 g/m*3 13.4 C 0 km/h
623 29-05-2011 04:35:04 13.2 C 5.97 g/m*3 13.2 C 0 km/h
624 29-05-2011 04:47:04 13.2 C 6.09 g/m*3 13.2 C 0 km/h
625 29-05-2011 04:59:04 13.1 C 6.05 g/m*3 13.1 C 0 km/h
Sensor: Nr:Datum:Temp:Abs-Feuchte:Windchill:Wind:
Aussen-T/F 626 29-05-2011 05:11:04 12.8 C 6.05 g/m*3 12.8 C 0 km/h
627 29-05-2011 05:23:05 12.2 C 6.15 g/m*3 12.2 C 0 km/h
628 29-05-2011 05:35:05 11.7 C 6.38 g/m*3 11.7 C 0 km/h
629 29-05-2011 05:47:05 11.6 C 6.44 g/m*3 11.6 C 0 km/h
630 29-05-2011 05:59:05 11.7 C 6.59 g/m*3 11.7 C 0 km/h
631 29-05-2011 06:11:05 11.8 C 6.53 g/m*3 11.8 C 0 km/h
632 29-05-2011 06:23:05 12.1 C 6.43 g/m*3 12.1 C 0 km/h
633 29-05-2011 06:35:05 12 C 6.61 g/m*3 12 C 0 km/h
634 29-05-2011 06:47:05 12.2 C 6.69 g/m*3 12.2 C 0 km/h
635 29-05-2011 06:59:05 12.3 C 6.84 g/m*3 12.3 C 0 km/h
636 29-05-2011 07:11:05 12.5 C 7.04 g/m*3 12.5 C 0 km/h
637 29-05-2011 07:23:05 12.6 C 6.97 g/m*3 12.6 C 0 km/h
638 29-05-2011 07:35:05 12.6 C 7.08 g/m*3 12.6 C 0 km/h
639 29-05-2011 07:47:05 12.8 C 7.28 g/m*3 12.8 C 0 km/h
640 29-05-2011 07:59:05 13.5 C 6.67 g/m*3 13.5 C 0 km/h
641 29-05-2011 08:11:05 14.6 C 6.38 g/m*3 14.6 C 0 km/h
642 29-05-2011 08:23:05 14.2 C 6.11 g/m*3 14.2 C 0 km/h
643 29-05-2011 08:35:05 14.7 C 6.3 g/m*3 14.7 C 0 km/h
644 29-05-2011 08:47:05 15.2 C 6.23 g/m*3 15.2 C 0 km/h
645 29-05-2011 08:59:05 15.2 C 6.23 g/m*3 15.2 C 0 km/h
646 29-05-2011 09:11:05 15.4 C 6.31 g/m*3 15.4 C 0 km/h
647 29-05-2011 09:23:03 15.6 C 6.38 g/m*3 15.6 C 0 km/h
648 29-05-2011 09:35:03 16 C 6.13 g/m*3 16 C 0 km/h
649 29-05-2011 09:47:02 16.7 C 6.25 g/m*3 16.7 C 0 km/h
650 29-05-2011 09:59:02 16.4 C 6.28 g/m*3 16.4 C 0 km/h
Sensor: Nr:Datum:Temp:Abs-Feuchte:Windchill:Wind:
Aussen-T/F 651 29-05-2011 10:11:03 16.8 C 6.43 g/m*3 16.8 C 0 km/h
652 29-05-2011 10:23:02 16.8 C 6.29 g/m*3 16.8 C 0 km/h
653 29-05-2011 10:35:02 17.6 C 6.45 g/m*3 17.6 C 0 km/h
654 29-05-2011 10:47:02 17.6 C 6.15 g/m*3 17.6 C 0 km/h
655 29-05-2011 10:59:02 18.4 C 6.29 g/m*3 18.4 C 0 km/h
656 29-05-2011 11:11:01 19.5 C 6.38 g/m*3 19.5 C 0 km/h
657 29-05-2011 11:23:02 19.6 C 6.25 g/m*3 19.6 C 0 km/h
658 29-05-2011 11:35:02 20.7 C 6.48 g/m*3 20.7 C 0 km/h
659 29-05-2011 11:47:02 20.1 C 6.43 g/m*3 20.1 C 0 km/h
660 29-05-2011 11:59:02 20.4 C 6.19 g/m*3 20.4 C 0 km/h
661 29-05-2011 12:11:03 20.4 C 6.19 g/m*3 20.4 C 0 km/h
662 29-05-2011 12:23:02 20.8 C 6.34 g/m*3 20.8 C 0 km/h
663 29-05-2011 12:35:02 21.5 C 6.22 g/m*3 21.5 C 0 km/h
664 29-05-2011 12:47:01 20.8 C 6.16 g/m*3 20.8 C 0 km/h
665 29-05-2011 12:59:01 21.3 C 6.15 g/m*3 21.3 C 0 km/h
666 29-05-2011 13:11:02 22.5 C 5.99 g/m*3 22.5 C 0 km/h
667 29-05-2011 13:23:01 25.6 C 5.48 g/m*3 25.6 C 0 km/h
668 29-05-2011 13:35:02 24.6 C 4.95 g/m*3 24.6 C 0 km/h
669 29-05-2011 13:47:01 27.5 C 5.29 g/m*3 27.5 C 0 km/h
670 29-05-2011 13:59:01 25.6 C 4.76 g/m*3 25.6 C 0 km/h
671 29-05-2011 14:11:02 27.5 C 5.29 g/m*3 27.5 C 0 km/h
672 29-05-2011 14:23:01 29.5 C 5.9 g/m*3 29.5 C 0 km/h
673 29-05-2011 14:35:02 28.5 C 5.59 g/m*3 28.5 C 0 km/h
674 29-05-2011 14:47:01 27.5 C 5.29 g/m*3 27.5 C 0 km/h
675 29-05-2011 14:59:01 28.2 C 5.5 g/m*3 28.2 C 0 km/h
Sensor: Nr:Datum:Temp:Abs-Feuchte:Windchill:Wind:
Aussen-T/F 676 29-05-2011 15:11:02 29.2 C 5.81 g/m*3 29.2 C 0 km/h
677 29-05-2011 15:23:02 28.6 C 5.62 g/m*3 28.6 C 0 km/h
678 29-05-2011 15:35:01 29.1 C 5.78 g/m*3 29.1 C 0 km/h
679 29-05-2011 15:47:02 29.4 C 5.87 g/m*3 29.4 C 0 km/h
680 29-05-2011 15:59:02 28.6 C 5.62 g/m*3 28.6 C 0 km/h
681 29-05-2011 16:11:01 29 C 5.74 g/m*3 29 C 0 km/h
682 29-05-2011 16:23:02 30.4 C 6.2 g/m*3 30.4 C 0 km/h
683 29-05-2011 16:35:01 28.2 C 5.5 g/m*3 28.2 C 0 km/h
684 29-05-2011 16:47:03 30.5 C 6.23 g/m*3 30.5 C 0 km/h
685 29-05-2011 16:59:03 30.2 C 6.13 g/m*3 30.2 C 0 km/h
686 29-05-2011 17:11:02 30 C 6.06 g/m*3 30 C 0 km/h
687 29-05-2011 17:23:02 28.9 C 5.71 g/m*3 28.9 C 0 km/h
688 29-05-2011 17:35:02 29.6 C 5.94 g/m*3 29.6 C 0 km/h
689 29-05-2011 17:47:02 29.7 C 5.97 g/m*3 29.7 C 0 km/h
690 29-05-2011 17:59:02 29.8 C 6 g/m*3 29.8 C 0 km/h
691 29-05-2011 18:11:01 29.1 C 5.78 g/m*3 29.1 C 0 km/h
692 29-05-2011 18:23:02 29.5 C 5.9 g/m*3 29.5 C 0 km/h
693 29-05-2011 18:35:02 29.1 C 5.78 g/m*3 29.1 C 0 km/h
694 29-05-2011 18:47:02 28.9 C 5.71 g/m*3 28.9 C 0 km/h
695 29-05-2011 18:59:02 28.4 C 5.56 g/m*3 28.4 C 0 km/h
696 29-05-2011 19:11:03 27.6 C 5.32 g/m*3 27.6 C 0 km/h
697 29-05-2011 19:23:02 27.7 C 5.35 g/m*3 27.7 C 0 km/h
698 29-05-2011 19:35:02 27.6 C 5.32 g/m*3 27.6 C 0 km/h
699 29-05-2011 19:47:01 25.5 C 5.68 g/m*3 25.5 C 0 km/h
700 29-05-2011 19:59:01 24.6 C 5.85 g/m*3 24.6 C 0 km/h
Sensor: Nr:Datum:Temp:Abs-Feuchte:Windchill:Wind:
Aussen-T/F 701 29-05-2011 20:11:02 23.8 C 6.45 g/m*3 23.8 C 0 km/h
702 29-05-2011 20:23:01 23.2 C 6.65 g/m*3 23.2 C 0 km/h
703 29-05-2011 20:35:02 22.1 C 7.03 g/m*3 22.1 C 0 km/h
704 29-05-2011 20:47:01 21.2 C 7.23 g/m*3 21.2 C 0 km/h
705 29-05-2011 20:59:01 20.3 C 7.21 g/m*3 20.3 C 0 km/h
706 29-05-2011 21:11:02 19.5 C 7.22 g/m*3 19.5 C 0 km/h
707 29-05-2011 21:23:01 18.9 C 7.13 g/m*3 18.9 C 0 km/h
708 29-05-2011 21:35:02 18.3 C 7.19 g/m*3 18.3 C 0 km/h
709 29-05-2011 21:47:01 17.9 C 7.18 g/m*3 17.9 C 0 km/h
710 29-05-2011 21:59:01 17.5 C 7.31 g/m*3 17.5 C 0 km/h
711 29-05-2011 22:11:02 17.2 C 7.18 g/m*3 17.2 C 0 km/h
712 29-05-2011 22:24:02 16.6 C 7.2 g/m*3 16.6 C 0 km/h
713 29-05-2011 22:36:02 16.1 C 6.99 g/m*3 16.1 C 0 km/h
714 29-05-2011 22:48:02 15.8 C 7.13 g/m*3 15.8 C 0 km/h
715 29-05-2011 23:00:02 15.7 C 7.23 g/m*3 15.7 C 0 km/h
716 29-05-2011 23:12:02 15.3 C 7.05 g/m*3 15.3 C 0 km/h
717 29-05-2011 23:24:02 14.9 C 7.01 g/m*3 14.9 C 0 km/h
718 29-05-2011 23:36:02 14.6 C 7.01 g/m*3 14.6 C 0 km/h
719 29-05-2011 23:48:02 14.4 C 7.05 g/m*3 14.4 C 0 km/h
720 30-05-2011 00:00:02 14.2 C 7.08 g/m*3 14.2 C 0 km/h
721 30-05-2011 00:12:02 14.1 C 7.04 g/m*3 14.1 C 0 km/h
722 30-05-2011 00:24:02 13.9 C 7.19 g/m*3 13.9 C 0 km/h
723 30-05-2011 00:36:02 13.7 C 7.1 g/m*3 13.7 C 0 km/h
724 30-05-2011 00:48:02 13.6 C 7.3 g/m*3 13.6 C 0 km/h
725 30-05-2011 01:00:02 13.3 C 7.28 g/m*3 13.3 C 0 km/h
Sensor: Nr:Datum:Temp:Abs-Feuchte:Windchill:Wind:
Aussen-T/F 726 30-05-2011 01:12:02 13.5 C 7.49 g/m*3 13.5 C 0 km/h
727 30-05-2011 01:24:02 13.2 C 7.35 g/m*3 13.2 C 0 km/h
728 30-05-2011 01:36:02 13.1 C 7.42 g/m*3 13.1 C 0 km/h
729 30-05-2011 01:48:02 12.9 C 7.33 g/m*3 12.9 C 0 km/h
730 30-05-2011 02:00:02 12.5 C 7.37 g/m*3 12.5 C 0 km/h
731 30-05-2011 02:12:02 12.2 C 7.12 g/m*3 12.2 C 0 km/h
732 30-05-2011 02:24:03 11.9 C 7.31 g/m*3 11.9 C 0 km/h
733 30-05-2011 02:36:03 11.7 C 7.43 g/m*3 11.7 C 0 km/h
734 30-05-2011 02:48:03 11.6 C 7.38 g/m*3 11.6 C 0 km/h
735 30-05-2011 03:00:03 11.3 C 7.45 g/m*3 11.3 C 0 km/h
736 30-05-2011 03:12:03 11 C 7.31 g/m*3 11 C 0 km/h
737 30-05-2011 03:24:03 11 C 7.51 g/m*3 11 C 0 km/h
738 30-05-2011 03:36:03 10.7 C 7.56 g/m*3 10.7 C 0 km/h
739 30-05-2011 03:48:03 10.7 C 7.56 g/m*3 10.7 C 0 km/h
740 30-05-2011 04:00:03 10.6 C 7.52 g/m*3 10.6 C 0 km/h
741 30-05-2011 04:12:03 10.6 C 7.52 g/m*3 10.6 C 0 km/h
742 30-05-2011 04:24:03 10.4 C 7.52 g/m*3 10.4 C 0 km/h
743 30-05-2011 04:36:03 10.1 C 7.38 g/m*3 10.1 C 0 km/h
744 30-05-2011 04:48:03 9.9 C 7.38 g/m*3 9.9 C 0 km/h
745 30-05-2011 05:00:03 9.8 C 7.33 g/m*3 9.8 C 0 km/h
746 30-05-2011 05:12:03 9.7 C 7.38 g/m*3 9.7 C 0 km/h
747 30-05-2011 05:24:03 9.6 C 7.42 g/m*3 9.6 C 0 km/h
748 30-05-2011 05:36:03 9.4 C 7.33 g/m*3 9.4 C 0 km/h
749 30-05-2011 05:48:03 9.3 C 7.28 g/m*3 9.3 C 0 km/h
750 30-05-2011 06:00:03 9.4 C 7.42 g/m*3 9.4 C 0 km/h
Sensor: Nr:Datum:Temp:Abs-Feuchte:Windchill:Wind:
Aussen-T/F 751 30-05-2011 06:12:03 9.5 C 7.55 g/m*3 9.5 C 0 km/h
752 30-05-2011 06:24:04 9.5 C 7.65 g/m*3 9.5 C 0 km/h
753 30-05-2011 06:36:02 9.7 C 7.74 g/m*3 9.7 C 0 km/h
754 30-05-2011 06:48:02 9.9 C 7.84 g/m*3 9.9 C 0 km/h
755 30-05-2011 07:00:02 10.1 C 7.85 g/m*3 10.1 C 0 km/h
756 30-05-2011 07:12:02 10.1 C 7.85 g/m*3 10.1 C 0 km/h
757 30-05-2011 07:24:02 10.3 C 7.95 g/m*3 10.3 C 0 km/h
758 30-05-2011 07:36:01 10.5 C 8.05 g/m*3 10.5 C 0 km/h
759 30-05-2011 07:48:02 10.7 C 8.15 g/m*3 10.7 C 0 km/h
760 30-05-2011 08:00:02 11 C 8.21 g/m*3 11 C 0 km/h
761 30-05-2011 08:12:01 11.7 C 8.68 g/m*3 11.7 C 0 km/h
762 30-05-2011 08:24:02 12.2 C 8.74 g/m*3 12.2 C 0 km/h
763 30-05-2011 08:36:02 12.7 C 8.91 g/m*3 12.7 C 0 km/h
764 30-05-2011 08:48:02 13.3 C 8.9 g/m*3 13.3 C 0 km/h
765 30-05-2011 09:00:02 13.9 C 9.11 g/m*3 13.9 C 0 km/h
766 30-05-2011 09:12:02 14.5 C 9.08 g/m*3 14.5 C 0 km/h
767 30-05-2011 09:24:03 15.3 C 9.01 g/m*3 15.3 C 0 km/h
768 30-05-2011 09:36:02 16 C 8.86 g/m*3 16 C 0 km/h
769 30-05-2011 09:48:02 16.8 C 9.01 g/m*3 16.8 C 0 km/h
770 30-05-2011 10:00:02 17.5 C 9.24 g/m*3 17.5 C 0 km/h
771 30-05-2011 10:12:02 18.8 C 9.18 g/m*3 18.8 C 0 km/h
772 30-05-2011 10:24:02 19.8 C 9.22 g/m*3 19.8 C 0 km/h
773 30-05-2011 10:36:02 20.1 C 9.21 g/m*3 20.1 C 0 km/h
774 30-05-2011 10:48:02 20.9 C 8.74 g/m*3 20.9 C 0 km/h
775 30-05-2011 11:00:02 21.8 C 8.06 g/m*3 21.8 C 0 km/h
Sensor: Nr:Datum:Temp:Abs-Feuchte:Windchill:Wind:
Aussen-T/F 776 30-05-2011 11:12:02 23.4 C 7.36 g/m*3 23.4 C 0 km/h
777 30-05-2011 11:24:02 24.3 C 6.64 g/m*3 24.3 C 0 km/h
778 30-05-2011 11:36:02 24.5 C 6.94 g/m*3 24.5 C 0 km/h
779 30-05-2011 11:48:02 24.9 C 6.64 g/m*3 24.9 C 0 km/h
780 30-05-2011 12:00:02 25.1 C 6.94 g/m*3 25.1 C 0 km/h
781 30-05-2011 12:12:01 25.8 C 6.02 g/m*3 25.8 C 0 km/h
782 30-05-2011 12:24:02 26.5 C 5.26 g/m*3 26.5 C 0 km/h
783 30-05-2011 12:36:02 26.2 C 5.17 g/m*3 26.2 C 0 km/h
784 30-05-2011 12:48:02 26.7 C 5.57 g/m*3 26.7 C 0 km/h
785 30-05-2011 13:00:03 27.2 C 5.2 g/m*3 27.2 C 0 km/h
786 30-05-2011 13:12:02 27.6 C 5.32 g/m*3 27.6 C 0 km/h
787 30-05-2011 13:24:02 30.9 C 6.37 g/m*3 30.9 C 0 km/h
788 30-05-2011 13:36:03 31.7 C 6.64 g/m*3 31.7 C 0 km/h
789 30-05-2011 13:48:02 32.5 C 6.93 g/m*3 32.5 C 0 km/h
790 30-05-2011 14:00:02 31.8 C 6.68 g/m*3 31.8 C 0 km/h
791 30-05-2011 14:12:02 33.3 C 7.23 g/m*3 33.3 C 0 km/h
792 30-05-2011 14:24:02 31.8 C 6.68 g/m*3 31.8 C 0 km/h
793 30-05-2011 14:36:02 32.9 C 7.08 g/m*3 32.9 C 0 km/h
794 30-05-2011 14:48:02 31.9 C 6.72 g/m*3 31.9 C 0 km/h
795 30-05-2011 15:00:02 32.4 C 6.9 g/m*3 32.4 C 0 km/h
796 30-05-2011 15:12:02 33.6 C 7.35 g/m*3 33.6 C 0 km/h
797 30-05-2011 15:24:02 33.5 C 7.31 g/m*3 33.5 C 0 km/h
798 30-05-2011 15:36:02 33.7 C 7.39 g/m*3 33.7 C 0 km/h
799 30-05-2011 15:48:02 33.3 C 7.23 g/m*3 33.3 C 0 km/h
800 30-05-2011 16:00:02 32.9 C 7.08 g/m*3 32.9 C 0 km/h
Sensor: Nr:Datum:Temp:Abs-Feuchte:Windchill:Wind:
Aussen-T/F 801 30-05-2011 16:12:02 33.4 C 7.27 g/m*3 33.4 C 0 km/h
802 30-05-2011 16:24:02 33.3 C 7.23 g/m*3 33.3 C 0 km/h
803 30-05-2011 16:36:02 33.1 C 7.16 g/m*3 33.1 C 0 km/h
804 30-05-2011 16:48:01 33.7 C 7.39 g/m*3 33.7 C 0 km/h
805 30-05-2011 17:00:01 32.6 C 6.97 g/m*3 32.6 C 0 km/h
806 30-05-2011 17:12:01 31.5 C 6.57 g/m*3 31.5 C 0 km/h
807 30-05-2011 17:24:01 32.3 C 6.86 g/m*3 32.3 C 0 km/h
808 30-05-2011 17:36:01 31.3 C 6.5 g/m*3 31.3 C 0 km/h
809 30-05-2011 17:48:12 31.4 C 6.54 g/m*3 31.4 C 0 km/h
810 30-05-2011 18:00:12 33 C 7.12 g/m*3 33 C 0 km/h
811 30-05-2011 18:12:02 33.8 C 7.43 g/m*3 33.8 C 0 km/h
812 30-05-2011 18:24:02 33.7 C 7.39 g/m*3 33.7 C 0 km/h
813 30-05-2011 18:36:02 30.9 C 6.37 g/m*3 30.9 C 0 km/h
814 30-05-2011 18:48:02 32.3 C 6.86 g/m*3 32.3 C 0 km/h
815 30-05-2011 19:00:02 32.2 C 6.82 g/m*3 32.2 C 0 km/h
816 30-05-2011 19:12:02 32 C 6.75 g/m*3 32 C 0 km/h
817 30-05-2011 19:24:02 32 C 6.75 g/m*3 32 C 0 km/h
818 30-05-2011 19:36:02 31.2 C 6.47 g/m*3 31.2 C 0 km/h
819 30-05-2011 19:48:02 29.7 C 5.97 g/m*3 29.7 C 0 km/h
820 30-05-2011 20:00:02 29.1 C 6.35 g/m*3 29.1 C 0 km/h
821 30-05-2011 20:12:02 28.2 C 6.05 g/m*3 28.2 C 0 km/h
822 30-05-2011 20:24:03 27.1 C 7.25 g/m*3 27.1 C 0 km/h
823 30-05-2011 20:36:02 25.9 C 7.26 g/m*3 25.9 C 0 km/h
824 30-05-2011 20:48:02 24.3 C 7.3 g/m*3 24.3 C 0 km/h
825 30-05-2011 21:00:02 23.7 C 7.27 g/m*3 23.7 C 0 km/h
Sensor: Nr:Datum:Temp:Abs-Feuchte:Windchill:Wind:
Aussen-T/F 826 30-05-2011 21:12:02 23.2 C 7.07 g/m*3 23.2 C 0 km/h
827 30-05-2011 21:24:02 22.5 C 6.99 g/m*3 22.5 C 0 km/h
828 30-05-2011 21:36:02 22 C 6.99 g/m*3 22 C 0 km/h
829 30-05-2011 21:48:02 21.5 C 7.17 g/m*3 21.5 C 0 km/h
830 30-05-2011 22:00:02 21.1 C 7.19 g/m*3 21.1 C 0 km/h
831 30-05-2011 22:12:02 20.9 C 7.29 g/m*3 20.9 C 0 km/h
832 30-05-2011 22:24:01 20.7 C 7.2 g/m*3 20.7 C 0 km/h
833 30-05-2011 22:36:02 20.7 C 7.2 g/m*3 20.7 C 0 km/h
834 30-05-2011 22:48:02 21.2 C 7.04 g/m*3 21.2 C 0 km/h
835 30-05-2011 23:00:02 20.5 C 7.12 g/m*3 20.5 C 0 km/h
836 30-05-2011 23:12:02 20.8 C 7.06 g/m*3 20.8 C 0 km/h
837 30-05-2011 23:24:02 20.1 C 7.13 g/m*3 20.1 C 0 km/h
838 30-05-2011 23:36:02 19.3 C 7.13 g/m*3 19.3 C 0 km/h
839 30-05-2011 23:48:02 19.5 C 7.22 g/m*3 19.5 C 0 km/h
840 31-05-2011 00:00:02 19.8 C 7.17 g/m*3 19.8 C 0 km/h
841 31-05-2011 00:12:02 19.1 C 7.21 g/m*3 19.1 C 0 km/h
842 31-05-2011 00:24:02 18.6 C 7.32 g/m*3 18.6 C 0 km/h
843 31-05-2011 00:36:02 17.9 C 7.48 g/m*3 17.9 C 0 km/h
844 31-05-2011 00:48:02 17.4 C 7.41 g/m*3 17.4 C 0 km/h
845 31-05-2011 01:00:02 16.9 C 7.48 g/m*3 16.9 C 0 km/h
846 31-05-2011 01:12:02 16.6 C 7.49 g/m*3 16.6 C 0 km/h
847 31-05-2011 01:24:02 16.4 C 7.4 g/m*3 16.4 C 0 km/h
848 31-05-2011 01:36:03 16.3 C 7.49 g/m*3 16.3 C 0 km/h
849 31-05-2011 01:48:03 16.8 C 8.01 g/m*3 16.8 C 0 km/h
850 31-05-2011 02:00:03 16.6 C 8.05 g/m*3 16.6 C 0 km/h
Sensor: Nr:Datum:Temp:Abs-Feuchte:Windchill:Wind:
Aussen-T/F 851 31-05-2011 02:12:03 16.5 C 7.86 g/m*3 16.5 C 0 km/h
852 31-05-2011 02:24:03 17.2 C 7.61 g/m*3 17.2 C 0 km/h
853 31-05-2011 02:36:03 17.6 C 7.8 g/m*3 17.6 C 0 km/h
854 31-05-2011 02:48:03 17.3 C 7.81 g/m*3 17.3 C 0 km/h
855 31-05-2011 03:00:03 16.9 C 8.2 g/m*3 16.9 C 0 km/h
856 31-05-2011 03:12:03 17.2 C 8.05 g/m*3 17.2 C 0 km/h
857 31-05-2011 03:24:03 17.7 C 7.85 g/m*3 17.7 C 0 km/h
858 31-05-2011 03:36:03 17.3 C 7.81 g/m*3 17.3 C 0 km/h
859 31-05-2011 03:48:03 15.9 C 7.85 g/m*3 15.9 C 0 km/h
860 31-05-2011 04:00:03 15.2 C 7.79 g/m*3 15.2 C 0 km/h
861 31-05-2011 04:12:03 15.7 C 8.16 g/m*3 15.7 C 0 km/h
862 31-05-2011 04:24:03 15.9 C 8.13 g/m*3 15.9 C 0 km/h
863 31-05-2011 04:36:03 15.5 C 8.2 g/m*3 15.5 C 0 km/h
864 31-05-2011 04:48:03 15.4 C 8.28 g/m*3 15.4 C 0 km/h
865 31-05-2011 05:00:03 15.4 C 8.15 g/m*3 15.4 C 0 km/h
866 31-05-2011 05:12:03 15.3 C 8.23 g/m*3 15.3 C 0 km/h
867 31-05-2011 05:24:03 15.7 C 8.43 g/m*3 15.7 C 0 km/h
868 31-05-2011 05:36:04 15.8 C 8.35 g/m*3 15.8 C 0 km/h
869 31-05-2011 05:48:04 15.3 C 8.23 g/m*3 15.3 C 0 km/h
870 31-05-2011 06:00:04 15 C 8.33 g/m*3 15 C 0 km/h
871 31-05-2011 06:12:04 15.4 C 8.41 g/m*3 15.4 C 0 km/h
872 31-05-2011 06:24:04 16.4 C 8.51 g/m*3 16.4 C 0 km/h
873 31-05-2011 06:36:04 15.9 C 8.4 g/m*3 15.9 C 0 km/h
874 31-05-2011 06:48:04 15.9 C 8.8 g/m*3 15.9 C 0 km/h
875 31-05-2011 07:00:04 16.8 C 8.72 g/m*3 16.8 C 0 km/h
Sensor: Nr:Datum:Temp:Abs-Feuchte:Windchill:Wind:
Aussen-T/F 876 31-05-2011 07:12:04 17.2 C 8.79 g/m*3 17.2 C 0 km/h
877 31-05-2011 07:24:01 17.7 C 8.6 g/m*3 17.7 C 0 km/h
878 31-05-2011 07:36:02 18.3 C 8.29 g/m*3 18.3 C 0 km/h
879 31-05-2011 07:48:01 18.1 C 8.5 g/m*3 18.1 C 0 km/h
880 31-05-2011 08:00:01 18 C 8.75 g/m*3 18 C 0 km/h
881 31-05-2011 08:12:02 18.1 C 8.81 g/m*3 18.1 C 0 km/h
882 31-05-2011 08:24:01 18.6 C 8.59 g/m*3 18.6 C 0 km/h
883 31-05-2011 08:36:02 19.3 C 8.29 g/m*3 19.3 C 0 km/h
884 31-05-2011 08:48:01 19.8 C 8.2 g/m*3 19.8 C 0 km/h
885 31-05-2011 09:00:01 19.1 C 8.03 g/m*3 19.1 C 0 km/h
886 31-05-2011 09:12:02 18 C 8.29 g/m*3 18 C 0 km/h
887 31-05-2011 09:24:01 16.4 C 9.07 g/m*3 16.4 C 0 km/h
888 31-05-2011 09:36:01 16 C 9.95 g/m*3 16 C 0 km/h
889 31-05-2011 09:48:01 16.1 C 10.55 g/m*3 16.1 C 0 km/h
890 31-05-2011 10:00:01 16.3 C 10.68 g/m*3 16.3 C 0 km/h
891 31-05-2011 10:12:01 17.1 C 10.34 g/m*3 17.1 C 0 km/h
892 31-05-2011 10:24:02 17.5 C 10.14 g/m*3 17.5 C 0 km/h
893 31-05-2011 10:36:01 17.7 C 10.11 g/m*3 17.7 C 0 km/h
894 31-05-2011 10:48:01 17.3 C 9.87 g/m*3 17.3 C 0 km/h
895 31-05-2011 11:00:01 16.6 C 10.03 g/m*3 16.6 C 0 km/h
896 31-05-2011 11:12:01 15.8 C 10.23 g/m*3 15.8 C 0 km/h
897 31-05-2011 11:24:02 15.1 C 10.32 g/m*3 15.1 C 0 km/h
898 31-05-2011 11:36:01 14.4 C 10.14 g/m*3 14.4 C 0 km/h
899 31-05-2011 11:48:02 14.1 C 10.07 g/m*3 14.1 C 0 km/h
900 31-05-2011 12:00:02 14.4 C 10.38 g/m*3 14.4 C 0 km/h
Sensor: Nr:Datum:Temp:Abs-Feuchte:Windchill:Wind:
Aussen-T/F 901 31-05-2011 12:12:01 14.2 C 10.14 g/m*3 14.2 C 0 km/h
902 31-05-2011 12:24:02 14.4 C 10.38 g/m*3 14.4 C 0 km/h
903 31-05-2011 12:36:01 14.4 C 10.38 g/m*3 14.4 C 0 km/h
904 31-05-2011 12:48:02 14.4 C 10.38 g/m*3 14.4 C 0 km/h
905 31-05-2011 13:00:02 14.4 C 10.38 g/m*3 14.4 C 0 km/h
906 31-05-2011 13:12:01 14.8 C 10.64 g/m*3 14.8 C 0 km/h
907 31-05-2011 13:24:02 15.1 C 10.71 g/m*3 15.1 C 0 km/h
908 31-05-2011 13:36:01 14.9 C 10.71 g/m*3 14.9 C 0 km/h
909 31-05-2011 13:48:02 14.7 C 10.58 g/m*3 14.7 C 0 km/h
910 31-05-2011 14:00:02 14.7 C 10.58 g/m*3 14.7 C 0 km/h
911 31-05-2011 14:12:01 15 C 10.64 g/m*3 15 C 0 km/h
912 31-05-2011 14:24:01 15.3 C 10.84 g/m*3 15.3 C 0 km/h
913 31-05-2011 14:36:02 15.1 C 10.06 g/m*3 15.1 C 0 km/h
914 31-05-2011 14:48:01 14.8 C 10.26 g/m*3 14.8 C 0 km/h
915 31-05-2011 15:00:01 14.6 C 10.26 g/m*3 14.6 C 0 km/h
916 31-05-2011 15:12:02 14.5 C 10.2 g/m*3 14.5 C 0 km/h
917 31-05-2011 15:24:01 15.3 C 10.32 g/m*3 15.3 C 0 km/h
918 31-05-2011 15:36:02 15.4 C 10.25 g/m*3 15.4 C 0 km/h
919 31-05-2011 15:48:01 14.4 C 9.89 g/m*3 14.4 C 0 km/h
920 31-05-2011 16:00:01 14.2 C 9.52 g/m*3 14.2 C 0 km/h
921 31-05-2011 16:12:02 14.2 C 9.65 g/m*3 14.2 C 0 km/h
922 31-05-2011 16:24:01 14 C 9.41 g/m*3 14 C 0 km/h
923 31-05-2011 16:36:01 13.8 C 9.53 g/m*3 13.8 C 0 km/h
924 31-05-2011 16:48:01 13.7 C 9.59 g/m*3 13.7 C 0 km/h
925 31-05-2011 17:00:01 13.3 C 9.36 g/m*3 13.3 C 0 km/h
Sensor: Nr:Datum:Temp:Abs-Feuchte:Windchill:Wind:
Aussen-T/F 926 31-05-2011 17:12:02 13.2 C 9.19 g/m*3 13.2 C 0 km/h
927 31-05-2011 17:24:01 12.8 C 8.96 g/m*3 12.8 C 0 km/h
928 31-05-2011 17:36:01 13 C 9.07 g/m*3 13 C 0 km/h
929 31-05-2011 17:48:02 12.7 C 9.02 g/m*3 12.7 C 0 km/h
930 31-05-2011 18:00:02 12.6 C 8.96 g/m*3 12.6 C 0 km/h
931 31-05-2011 18:12:01 12.4 C 8.74 g/m*3 12.4 C 0 km/h
932 31-05-2011 18:24:02 12.5 C 8.69 g/m*3 12.5 C 0 km/h
933 31-05-2011 18:36:01 12.3 C 8.58 g/m*3 12.3 C 0 km/h
934 31-05-2011 18:48:02 12.2 C 8.52 g/m*3 12.2 C 0 km/h
935 31-05-2011 19:00:02 12.2 C 8.42 g/m*3 12.2 C 0 km/h
936 31-05-2011 19:12:01 12.2 C 8.42 g/m*3 12.2 C 0 km/h
937 31-05-2011 19:24:01 12 C 8.42 g/m*3 12 C 0 km/h
938 31-05-2011 19:36:01 11.9 C 8.58 g/m*3 11.9 C 0 km/h
939 31-05-2011 19:48:01 11.7 C 8.68 g/m*3 11.7 C 0 km/h
940 31-05-2011 20:00:02 11.8 C 8.84 g/m*3 11.8 C 0 km/h
941 31-05-2011 20:12:01 11.6 C 8.83 g/m*3 11.6 C 0 km/h
942 31-05-2011 20:24:01 11.8 C 9.05 g/m*3 11.8 C 0 km/h
943 31-05-2011 20:36:02 11.6 C 8.83 g/m*3 11.6 C 0 km/h
944 31-05-2011 20:48:01 11.6 C 8.83 g/m*3 11.6 C 0 km/h
945 31-05-2011 21:00:01 11.3 C 8.57 g/m*3 11.3 C 0 km/h
946 31-05-2011 21:12:02 11.2 C 8.51 g/m*3 11.2 C 0 km/h
947 31-05-2011 21:24:01 11 C 8.31 g/m*3 11 C 0 km/h
948 31-05-2011 21:36:02 10.8 C 8.3 g/m*3 10.8 C 0 km/h
949 31-05-2011 21:48:01 10.9 C 8.45 g/m*3 10.9 C 0 km/h
950 31-05-2011 22:00:01 10.8 C 8.5 g/m*3 10.8 C 0 km/h
Sensor: Nr:Datum:Temp:Abs-Feuchte:Windchill:Wind:
Aussen-T/F 951 31-05-2011 22:12:02 10.8 C 8.6 g/m*3 10.8 C 0 km/h
952 31-05-2011 22:24:01 10.7 C 8.55 g/m*3 10.7 C 0 km/h
953 31-05-2011 22:36:01 10.7 C 8.64 g/m*3 10.7 C 0 km/h
954 31-05-2011 22:49:05 10.7 C 8.64 g/m*3 10.7 C 0 km/h
955 31-05-2011 23:01:05 10.6 C 8.59 g/m*3 10.6 C 0 km/h
956 31-05-2011 23:13:05 10.6 C 8.59 g/m*3 10.6 C 0 km/h
957 31-05-2011 23:25:05 10.7 C 8.64 g/m*3 10.7 C 0 km/h
958 31-05-2011 23:37:05 10.7 C 8.64 g/m*3 10.7 C 0 km/h
959 31-05-2011 23:49:05 10.7 C 8.64 g/m*3 10.7 C 0 km/h
960 01-06-2011 00:01:05 10.5 C 8.53 g/m*3 10.5 C 0 km/h
961 01-06-2011 00:13:05 10.6 C 8.59 g/m*3 10.6 C 0 km/h
962 01-06-2011 00:25:05 10.7 C 8.55 g/m*3 10.7 C 0 km/h
963 01-06-2011 00:37:05 10.8 C 8.6 g/m*3 10.8 C 0 km/h
964 01-06-2011 00:49:05 10.6 C 8.49 g/m*3 10.6 C 0 km/h
965 01-06-2011 01:01:05 10.5 C 8.53 g/m*3 10.5 C 0 km/h
966 01-06-2011 01:13:05 10.4 C 8.48 g/m*3 10.4 C 0 km/h
967 01-06-2011 01:25:05 10.5 C 8.53 g/m*3 10.5 C 0 km/h
968 01-06-2011 01:37:05 10.5 C 8.53 g/m*3 10.5 C 0 km/h
969 01-06-2011 01:49:05 10.3 C 8.43 g/m*3 10.3 C 0 km/h
970 01-06-2011 02:01:06 10.4 C 8.48 g/m*3 10.4 C 0 km/h
971 01-06-2011 02:13:06 10.4 C 8.48 g/m*3 10.4 C 0 km/h
972 01-06-2011 02:25:06 10.1 C 8.32 g/m*3 10.1 C 0 km/h
973 01-06-2011 02:37:06 10.3 C 8.43 g/m*3 10.3 C 0 km/h
974 01-06-2011 02:49:06 10.2 C 8.37 g/m*3 10.2 C 0 km/h
975 01-06-2011 03:01:06 10.3 C 8.43 g/m*3 10.3 C 0 km/h
Sensor: Nr:Datum:Temp:Abs-Feuchte:Windchill:Wind:
Aussen-T/F 976 01-06-2011 03:13:06 10.4 C 8.48 g/m*3 10.4 C 0 km/h
977 01-06-2011 03:25:06 10.2 C 8.09 g/m*3 10.2 C 0 km/h
978 01-06-2011 03:37:06 10.1 C 7.85 g/m*3 10.1 C 0 km/h
979 01-06-2011 03:49:06 10.1 C 7.75 g/m*3 10.1 C 0 km/h
980 01-06-2011 04:01:06 10 C 7.71 g/m*3 10 C 0 km/h
981 01-06-2011 04:13:06 10.1 C 7.66 g/m*3 10.1 C 0 km/h
982 01-06-2011 04:25:06 10.1 C 7.56 g/m*3 10.1 C 0 km/h
983 01-06-2011 04:37:06 9.8 C 7.52 g/m*3 9.8 C 0 km/h
984 01-06-2011 04:49:06 9.7 C 7.65 g/m*3 9.7 C 0 km/h
985 01-06-2011 05:01:06 9.5 C 7.55 g/m*3 9.5 C 0 km/h
986 01-06-2011 05:13:06 9.6 C 7.69 g/m*3 9.6 C 0 km/h
987 01-06-2011 05:25:06 9.5 C 7.65 g/m*3 9.5 C 0 km/h
988 01-06-2011 05:37:06 9.5 C 7.65 g/m*3 9.5 C 0 km/h
989 01-06-2011 05:49:06 9.5 C 7.65 g/m*3 9.5 C 0 km/h
990 01-06-2011 06:01:06 9.7 C 7.74 g/m*3 9.7 C 0 km/h
991 01-06-2011 06:13:07 9.8 C 7.79 g/m*3 9.8 C 0 km/h
992 01-06-2011 06:25:07 9.8 C 7.7 g/m*3 9.8 C 0 km/h
993 01-06-2011 06:37:07 9.9 C 7.66 g/m*3 9.9 C 0 km/h
994 01-06-2011 06:49:07 10.1 C 7.47 g/m*3 10.1 C 0 km/h
995 01-06-2011 07:01:07 10.3 C 7.37 g/m*3 10.3 C 0 km/h
996 01-06-2011 07:13:07 10.4 C 7.32 g/m*3 10.4 C 0 km/h
997 01-06-2011 07:25:03 10.5 C 7.18 g/m*3 10.5 C 0 km/h
998 01-06-2011 07:37:04 10.6 C 7.12 g/m*3 10.6 C 0 km/h
999 01-06-2011 07:49:02 10.4 C 7.04 g/m*3 10.4 C 0 km/h
1000 01-06-2011 08:01:01 10.2 C 6.95 g/m*3 10.2 C 0 km/h
Sensor: Nr:Datum:Temp:Abs-Feuchte:Windchill:Wind:
Aussen-T/F 1001 01-06-2011 08:13:01 10.6 C 7.12 g/m*3 10.6 C 0 km/h
1002 01-06-2011 08:25:02 11 C 7.01 g/m*3 11 C 0 km/h
1003 01-06-2011 08:37:01 11.3 C 7.04 g/m*3 11.3 C 0 km/h
1004 01-06-2011 08:49:01 11.5 C 6.92 g/m*3 11.5 C 0 km/h
1005 01-06-2011 09:01:02 11.6 C 6.86 g/m*3 11.6 C 0 km/h
1006 01-06-2011 09:13:02 11.9 C 6.88 g/m*3 11.9 C 0 km/h
1007 01-06-2011 09:25:02 12 C 6.71 g/m*3 12 C 0 km/h
1008 01-06-2011 09:37:02 12.4 C 6.77 g/m*3 12.4 C 0 km/h
1009 01-06-2011 09:49:02 12.2 C 6.58 g/m*3 12.2 C 0 km/h
1010 01-06-2011 10:01:01 12.2 C 6.58 g/m*3 12.2 C 0 km/h
1011 01-06-2011 10:13:01 12.7 C 6.46 g/m*3 12.7 C 0 km/h
1012 01-06-2011 10:25:02 12.7 C 5.9 g/m*3 12.7 C 0 km/h
1013 01-06-2011 10:37:02 13.2 C 6.32 g/m*3 13.2 C 0 km/h
1014 01-06-2011 10:49:02 13.2 C 6.32 g/m*3 13.2 C 0 km/h
1015 01-06-2011 11:01:02 13.2 C 6.32 g/m*3 13.2 C 0 km/h
1016 01-06-2011 11:13:02 13.2 C 6.32 g/m*3 13.2 C 0 km/h
1017 01-06-2011 11:25:02 13.2 C 6.32 g/m*3 13.2 C 0 km/h
1018 01-06-2011 11:37:02 13.2 C 6.32 g/m*3 13.2 C 0 km/h
1019 01-06-2011 11:49:02 16 C 5.45 g/m*3 16 C 0 km/h
1020 01-06-2011 12:01:03 16 C 5.45 g/m*3 16 C 0 km/h
1021 01-06-2011 12:13:03 16 C 5.45 g/m*3 16 C 0 km/h
1022 01-06-2011 12:25:02 17.1 C 5.68 g/m*3 17.1 C 0 km/h
1023 01-06-2011 12:37:02 17.5 C 5.52 g/m*3 17.5 C 0 km/h
1024 01-06-2011 12:49:02 18.1 C 5.56 g/m*3 18.1 C 0 km/h
1025 01-06-2011 13:01:01 18.7 C 5.76 g/m*3 18.7 C 0 km/h
Sensor: Nr:Datum:Temp:Abs-Feuchte:Windchill:Wind:
Aussen-T/F 1026 01-06-2011 13:13:01 17.7 C 5.28 g/m*3 17.7 C 0 km/h
1027 01-06-2011 13:25:01 17.7 C 5.28 g/m*3 17.7 C 0 km/h
1028 01-06-2011 13:37:01 18.5 C 5.54 g/m*3 18.5 C 0 km/h
1029 01-06-2011 13:49:02 18.5 C 5.54 g/m*3 18.5 C 0 km/h
1030 01-06-2011 14:01:02 18.5 C 5.54 g/m*3 18.5 C 0 km/h
1031 01-06-2011 14:13:02 18.5 C 5.54 g/m*3 18.5 C 0 km/h
1032 01-06-2011 14:25:02 20.6 C 5.01 g/m*3 20.6 C 0 km/h
1033 01-06-2011 14:37:03 21 C 4.76 g/m*3 21 C 0 km/h
1034 01-06-2011 14:49:02 19.8 C 4.95 g/m*3 19.8 C 0 km/h
1035 01-06-2011 15:01:03 20.3 C 5.1 g/m*3 20.3 C 0 km/h
1036 01-06-2011 15:13:03 23 C 4.93 g/m*3 23 C 0 km/h
1037 01-06-2011 15:25:02 20.7 C 4.86 g/m*3 20.7 C 0 km/h
1038 01-06-2011 15:37:02 20.5 C 4.98 g/m*3 20.5 C 0 km/h
1039 01-06-2011 15:49:02 21.3 C 4.66 g/m*3 21.3 C 0 km/h
1040 01-06-2011 16:01:03 22.1 C 3.9 g/m*3 22.1 C 0 km/h
1041 01-06-2011 16:13:03 21.1 C 4.24 g/m*3 21.1 C 0 km/h
1042 01-06-2011 16:25:03 21.7 C 4.39 g/m*3 21.7 C 0 km/h
1043 01-06-2011 16:37:02 20.9 C 4.55 g/m*3 20.9 C 0 km/h
1044 01-06-2011 16:49:02 21.7 C 4.77 g/m*3 21.7 C 0 km/h
1045 01-06-2011 17:01:02 20.9 C 4.74 g/m*3 20.9 C 0 km/h
1046 01-06-2011 17:13:02 21.6 C 4.74 g/m*3 21.6 C 0 km/h
1047 01-06-2011 17:25:02 20.3 C 4.75 g/m*3 20.3 C 0 km/h
1048 01-06-2011 17:37:03 19.7 C 5.09 g/m*3 19.7 C 0 km/h
1049 01-06-2011 17:49:02 19.5 C 5.03 g/m*3 19.5 C 0 km/h
1050 01-06-2011 18:01:03 19.6 C 5.06 g/m*3 19.6 C 0 km/h
Sensor: Nr:Datum:Temp:Abs-Feuchte:Windchill:Wind:
Aussen-T/F 1051 01-06-2011 18:13:03 19.8 C 5.12 g/m*3 19.8 C 0 km/h
1052 01-06-2011 18:25:02 19.9 C 5.15 g/m*3 19.9 C 0 km/h
1053 01-06-2011 18:37:03 20.1 C 5.21 g/m*3 20.1 C 0 km/h
1054 01-06-2011 18:49:02 20.1 C 5.56 g/m*3 20.1 C 0 km/h
1055 01-06-2011 19:01:02 19.5 C 5.2 g/m*3 19.5 C 0 km/h
1056 01-06-2011 19:13:02 19.8 C 5.64 g/m*3 19.8 C 0 km/h
1057 01-06-2011 19:25:01 21 C 5.31 g/m*3 21 C 0 km/h
1058 01-06-2011 19:37:02 22.8 C 4.47 g/m*3 22.8 C 0 km/h
1059 01-06-2011 19:49:02 20 C 5.01 g/m*3 20 C 0 km/h
1060 01-06-2011 20:01:02 18.9 C 5.18 g/m*3 18.9 C 0 km/h
1061 01-06-2011 20:13:02 18.5 C 5.22 g/m*3 18.5 C 0 km/h
1062 01-06-2011 20:25:02 18 C 5.38 g/m*3 18 C 0 km/h
1063 01-06-2011 20:37:02 17.7 C 6.04 g/m*3 17.7 C 0 km/h
1064 01-06-2011 20:49:02 17.9 C 6.41 g/m*3 17.9 C 0 km/h
1065 01-06-2011 21:01:02 17.5 C 6.26 g/m*3 17.5 C 0 km/h
1066 01-06-2011 21:13:02 17 C 5.93 g/m*3 17 C 0 km/h
1067 01-06-2011 21:25:03 17.2 C 5.56 g/m*3 17.2 C 0 km/h
1068 01-06-2011 21:37:03 17 C 5.64 g/m*3 17 C 0 km/h
1069 01-06-2011 21:49:03 16.9 C 5.9 g/m*3 16.9 C 0 km/h
1070 01-06-2011 22:01:03 16.6 C 5.93 g/m*3 16.6 C 0 km/h
1071 01-06-2011 22:13:03 16.6 C 5.93 g/m*3 16.6 C 0 km/h
1072 01-06-2011 22:25:02 16.2 C 7.03 g/m*3 16.2 C 0 km/h
1073 01-06-2011 22:37:02 16.2 C 7.03 g/m*3 16.2 C 0 km/h
1074 01-06-2011 22:49:02 15.8 C 6.19 g/m*3 15.8 C 0 km/h
1075 01-06-2011 23:02:18 15.8 C 6.33 g/m*3 15.8 C 0 km/h
Sensor: Nr:Datum:Temp:Abs-Feuchte:Windchill:Wind:
Aussen-T/F 1076 01-06-2011 23:14:18 15.9 C 5.96 g/m*3 15.9 C 0 km/h
1077 01-06-2011 23:26:18 15.8 C 6.06 g/m*3 15.8 C 0 km/h
1078 01-06-2011 23:38:18 15.8 C 6.06 g/m*3 15.8 C 0 km/h
1079 01-06-2011 23:50:18 15.7 C 6.02 g/m*3 15.7 C 0 km/h
1080 02-06-2011 00:02:18 15.5 C 6.21 g/m*3 15.5 C 0 km/h
1081 02-06-2011 00:14:19 15.2 C 6.36 g/m*3 15.2 C 0 km/h
1082 02-06-2011 00:26:19 15.2 C 6.23 g/m*3 15.2 C 0 km/h
1083 02-06-2011 00:38:19 14.8 C 7.22 g/m*3 14.8 C 0 km/h
1084 02-06-2011 00:50:19 14.3 C 7.25 g/m*3 14.3 C 0 km/h
1085 02-06-2011 01:02:19 14.1 C 7.28 g/m*3 14.1 C 0 km/h
1086 02-06-2011 01:14:19 13.9 C 7.43 g/m*3 13.9 C 0 km/h
1087 02-06-2011 01:26:19 13.8 C 7.39 g/m*3 13.8 C 0 km/h
1088 02-06-2011 01:38:19 13.8 C 7.27 g/m*3 13.8 C 0 km/h
1089 02-06-2011 01:50:19 13.7 C 7.34 g/m*3 13.7 C 0 km/h
1090 02-06-2011 02:02:19 13.7 C 7.46 g/m*3 13.7 C 0 km/h
1091 02-06-2011 02:14:19 13.5 C 7.37 g/m*3 13.5 C 0 km/h
1092 02-06-2011 02:26:19 13.5 C 7.25 g/m*3 13.5 C 0 km/h
1093 02-06-2011 02:38:19 13.3 C 6.93 g/m*3 13.3 C 0 km/h
1094 02-06-2011 02:50:19 13.3 C 7.16 g/m*3 13.3 C 0 km/h
1095 02-06-2011 03:02:19 13.1 C 6.85 g/m*3 13.1 C 0 km/h
1096 02-06-2011 03:14:19 12.7 C 6.68 g/m*3 12.7 C 0 km/h
1097 02-06-2011 03:26:19 12.2 C 6.58 g/m*3 12.2 C 0 km/h
1098 02-06-2011 03:38:19 11.4 C 6.47 g/m*3 11.4 C 0 km/h
1099 02-06-2011 03:50:19 10.7 C 6.38 g/m*3 10.7 C 0 km/h
1100 02-06-2011 04:02:19 10.4 C 6.36 g/m*3 10.4 C 0 km/h
Sensor: Nr:Datum:Temp:Abs-Feuchte:Windchill:Wind:
Aussen-T/F 1101 02-06-2011 04:14:20 10.5 C 6.3 g/m*3 10.5 C 0 km/h
1102 02-06-2011 04:26:20 10.7 C 6.38 g/m*3 10.7 C 0 km/h
1103 02-06-2011 04:38:20 10.6 C 6.25 g/m*3 10.6 C 0 km/h
1104 02-06-2011 04:50:20 10 C 6.2 g/m*3 10 C 0 km/h
1105 02-06-2011 05:02:20 9.6 C 6.23 g/m*3 9.6 C 0 km/h
1106 02-06-2011 05:14:20 9.2 C 6.16 g/m*3 9.2 C 0 km/h
1107 02-06-2011 05:26:20 9.1 C 6.21 g/m*3 9.1 C 0 km/h
1108 02-06-2011 05:38:20 8.9 C 6.31 g/m*3 8.9 C 0 km/h
1109 02-06-2011 05:50:20 8.7 C 6.14 g/m*3 8.7 C 0 km/h
1110 02-06-2011 06:02:20 8.6 C 6.19 g/m*3 8.6 C 0 km/h
1111 02-06-2011 06:14:20 8.8 C 6.35 g/m*3 8.8 C 0 km/h
1112 02-06-2011 06:26:20 9 C 6.35 g/m*3 9 C 0 km/h
1113 02-06-2011 06:38:20 8.9 C 6.48 g/m*3 8.9 C 0 km/h
1114 02-06-2011 06:50:20 8.8 C 6.44 g/m*3 8.8 C 0 km/h
1115 02-06-2011 07:02:04 8.9 C 6.57 g/m*3 8.9 C 0 km/h
1116 02-06-2011 07:14:04 9.3 C 6.56 g/m*3 9.3 C 0 km/h
1117 02-06-2011 07:26:03 9.7 C 6.64 g/m*3 9.7 C 0 km/h
1118 02-06-2011 07:38:04 10 C 6.58 g/m*3 10 C 0 km/h
1119 02-06-2011 07:50:03 10 C 6.48 g/m*3 10 C 0 km/h
1120 02-06-2011 08:02:02 10 C 6.58 g/m*3 10 C 0 km/h
1121 02-06-2011 08:14:02 10.5 C 6.79 g/m*3 10.5 C 0 km/h
1122 02-06-2011 08:26:03 10.8 C 6.92 g/m*3 10.8 C 0 km/h
1123 02-06-2011 08:38:03 11.2 C 6.89 g/m*3 11.2 C 0 km/h
1124 02-06-2011 08:50:01 11.8 C 6.95 g/m*3 11.8 C 0 km/h
1125 02-06-2011 09:02:02 12.3 C 6.84 g/m*3 12.3 C 0 km/h
Sensor: Nr:Datum:Temp:Abs-Feuchte:Windchill:Wind:
Aussen-T/F 1126 02-06-2011 09:14:02 13 C 6.8 g/m*3 13 C 0 km/h
1127 02-06-2011 09:26:02 13.5 C 6.32 g/m*3 13.5 C 0 km/h
1128 02-06-2011 09:38:02 13.5 C 6.32 g/m*3 13.5 C 0 km/h
1129 02-06-2011 09:50:02 13.5 C 6.32 g/m*3 13.5 C 0 km/h
1130 02-06-2011 10:02:02 13.5 C 6.32 g/m*3 13.5 C 0 km/h
1131 02-06-2011 10:14:02 13.5 C 6.32 g/m*3 13.5 C 0 km/h
1132 02-06-2011 10:26:02 13.5 C 6.32 g/m*3 13.5 C 0 km/h
1133 02-06-2011 10:38:02 13.5 C 6.32 g/m*3 13.5 C 0 km/h
1134 02-06-2011 10:50:02 13.5 C 6.32 g/m*3 13.5 C 0 km/h
1135 02-06-2011 11:02:02 13.5 C 6.32 g/m*3 13.5 C 0 km/h
1136 02-06-2011 11:14:02 19.1 C 4.26 g/m*3 19.1 C 0 km/h
1137 02-06-2011 11:26:01 19.2 C 4.12 g/m*3 19.2 C 0 km/h
1138 02-06-2011 11:38:03 19.3 C 4.15 g/m*3 19.3 C 0 km/h
1139 02-06-2011 11:50:02 19.3 C 4.15 g/m*3 19.3 C 0 km/h
1140 02-06-2011 12:02:04 19.3 C 4.15 g/m*3 19.3 C 0 km/h
1141 02-06-2011 12:14:04 19.3 C 4.15 g/m*3 19.3 C 0 km/h
1142 02-06-2011 12:26:02 20.1 C 4 g/m*3 20.1 C 0 km/h
1143 02-06-2011 12:38:02 20.1 C 3.82 g/m*3 20.1 C 0 km/h
1144 02-06-2011 12:50:02 20.5 C 3.74 g/m*3 20.5 C 0 km/h
1145 02-06-2011 13:02:03 21.1 C 3.87 g/m*3 21.1 C 0 km/h
1146 02-06-2011 13:14:03 21.4 C 3.75 g/m*3 21.4 C 0 km/h
1147 02-06-2011 13:26:02 25.3 C 4.68 g/m*3 25.3 C 0 km/h
1148 02-06-2011 13:38:03 27.9 C 5.41 g/m*3 27.9 C 0 km/h
1149 02-06-2011 13:50:02 30 C 6.06 g/m*3 30 C 0 km/h
1150 02-06-2011 14:02:02 30.1 C 6.1 g/m*3 30.1 C 0 km/h
Sensor: Nr:Datum:Temp:Abs-Feuchte:Windchill:Wind:
Aussen-T/F 1151 02-06-2011 14:14:02 30.4 C 6.2 g/m*3 30.4 C 0 km/h
1152 02-06-2011 14:26:02 30.3 C 6.16 g/m*3 30.3 C 0 km/h
1153 02-06-2011 14:38:02 30.2 C 6.13 g/m*3 30.2 C 0 km/h
1154 02-06-2011 14:50:02 30.1 C 6.1 g/m*3 30.1 C 0 km/h
1155 02-06-2011 15:02:03 30.1 C 6.1 g/m*3 30.1 C 0 km/h
1156 02-06-2011 15:14:03 30 C 6.06 g/m*3 30 C 0 km/h
1157 02-06-2011 15:26:03 30.3 C 6.16 g/m*3 30.3 C 0 km/h
1158 02-06-2011 15:38:03 30.7 C 6.3 g/m*3 30.7 C 0 km/h
1159 02-06-2011 15:50:02 30.7 C 6.3 g/m*3 30.7 C 0 km/h
1160 02-06-2011 16:02:03 30.1 C 6.1 g/m*3 30.1 C 0 km/h
1161 02-06-2011 16:14:03 30.4 C 6.2 g/m*3 30.4 C 0 km/h
1162 02-06-2011 16:26:02 30.1 C 6.1 g/m*3 30.1 C 0 km/h
1163 02-06-2011 16:38:02 31.2 C 6.47 g/m*3 31.2 C 0 km/h
1164 02-06-2011 16:50:03 31.3 C 6.5 g/m*3 31.3 C 0 km/h
1165 02-06-2011 17:02:03 31.1 C 6.43 g/m*3 31.1 C 0 km/h
1166 02-06-2011 17:14:03 30.7 C 6.3 g/m*3 30.7 C 0 km/h
1167 02-06-2011 17:26:03 30.2 C 6.13 g/m*3 30.2 C 0 km/h
1168 02-06-2011 17:38:02 30.8 C 6.33 g/m*3 30.8 C 0 km/h
1169 02-06-2011 17:50:02 30.6 C 6.26 g/m*3 30.6 C 0 km/h
1170 02-06-2011 18:02:01 30.6 C 6.26 g/m*3 30.6 C 0 km/h
1171 02-06-2011 18:14:01 30.6 C 6.26 g/m*3 30.6 C 0 km/h
1172 02-06-2011 18:26:01 30.6 C 6.26 g/m*3 30.6 C 0 km/h
1173 02-06-2011 18:38:02 30.6 C 6.26 g/m*3 30.6 C 0 km/h
1174 02-06-2011 18:50:01 30.6 C 6.26 g/m*3 30.6 C 0 km/h
1175 02-06-2011 19:02:02 30.6 C 6.26 g/m*3 30.6 C 0 km/h
Sensor: Nr:Datum:Temp:Abs-Feuchte:Windchill:Wind:
Aussen-T/F 1176 02-06-2011 19:14:02 30.6 C 6.26 g/m*3 30.6 C 0 km/h
1177 02-06-2011 19:26:02 30.6 C 6.26 g/m*3 30.6 C 0 km/h
1178 02-06-2011 19:38:02 30.6 C 6.26 g/m*3 30.6 C 0 km/h
1179 02-06-2011 19:50:01 30.6 C 6.26 g/m*3 30.6 C 0 km/h
1180 02-06-2011 20:02:02 30.6 C 6.26 g/m*3 30.6 C 0 km/h
1181 02-06-2011 20:14:02 30.6 C 6.26 g/m*3 30.6 C 0 km/h
1182 02-06-2011 20:26:02 30.6 C 6.26 g/m*3 30.6 C 0 km/h
1183 02-06-2011 20:38:01 30.6 C 6.26 g/m*3 30.6 C 0 km/h
1184 02-06-2011 20:50:02 30.6 C 6.26 g/m*3 30.6 C 0 km/h
1185 02-06-2011 21:02:02 30.6 C 6.26 g/m*3 30.6 C 0 km/h
1186 02-06-2011 21:14:02 30.6 C 6.26 g/m*3 30.6 C 0 km/h
1187 02-06-2011 21:26:02 30.6 C 6.26 g/m*3 30.6 C 0 km/h
1188 02-06-2011 21:38:02 30.6 C 6.26 g/m*3 30.6 C 0 km/h
1189 02-06-2011 21:50:02 30.6 C 6.26 g/m*3 30.6 C 0 km/h
1190 02-06-2011 22:02:02 30.6 C 6.26 g/m*3 30.6 C 0 km/h
1191 02-06-2011 22:14:02 30.6 C 6.26 g/m*3 30.6 C 0 km/h
1192 02-06-2011 22:27:02 16 C 5.59 g/m*3 16 C 0 km/h
1193 02-06-2011 22:39:02 16 C 5.59 g/m*3 16 C 0 km/h
1194 02-06-2011 22:51:02 16 C 5.59 g/m*3 16 C 0 km/h
1195 02-06-2011 23:03:02 16 C 5.59 g/m*3 16 C 0 km/h
1196 02-06-2011 23:15:02 16 C 5.59 g/m*3 16 C 0 km/h
1197 02-06-2011 23:27:03 16 C 5.59 g/m*3 16 C 0 km/h
1198 02-06-2011 23:39:03 16 C 5.59 g/m*3 16 C 0 km/h
1199 02-06-2011 23:51:03 16 C 5.59 g/m*3 16 C 0 km/h
1200 03-06-2011 00:03:03 16 C 5.59 g/m*3 16 C 0 km/h
Sensor: Nr:Datum:Temp:Abs-Feuchte:Windchill:Wind:
Aussen-T/F 1201 03-06-2011 00:15:03 16 C 5.59 g/m*3 16 C 0 km/h
1202 03-06-2011 00:27:03 16 C 5.59 g/m*3 16 C 0 km/h
1203 03-06-2011 00:39:03 16 C 5.59 g/m*3 16 C 0 km/h
1204 03-06-2011 00:51:03 16 C 5.59 g/m*3 16 C 0 km/h
1205 03-06-2011 01:03:03 13.3 C 5.66 g/m*3 13.3 C 0 km/h
1206 03-06-2011 01:15:03 13.2 C 5.63 g/m*3 13.2 C 0 km/h
1207 03-06-2011 01:27:03 13.1 C 5.82 g/m*3 13.1 C 0 km/h
1208 03-06-2011 01:39:03 12.9 C 5.97 g/m*3 12.9 C 0 km/h
1209 03-06-2011 01:51:03 12.8 C 5.94 g/m*3 12.8 C 0 km/h
1210 03-06-2011 02:03:03 12.8 C 5.71 g/m*3 12.8 C 0 km/h
1211 03-06-2011 02:15:03 12.6 C 5.64 g/m*3 12.6 C 0 km/h
1212 03-06-2011 02:27:03 12.4 C 5.68 g/m*3 12.4 C 0 km/h
1213 03-06-2011 02:39:03 12.2 C 5.72 g/m*3 12.2 C 0 km/h
1214 03-06-2011 02:51:03 11.9 C 5.82 g/m*3 11.9 C 0 km/h
1215 03-06-2011 03:03:03 11.9 C 5.93 g/m*3 11.9 C 0 km/h
1216 03-06-2011 03:15:03 11.7 C 5.96 g/m*3 11.7 C 0 km/h
1217 03-06-2011 03:27:03 11.7 C 5.86 g/m*3 11.7 C 0 km/h
1218 03-06-2011 03:39:04 11.6 C 5.72 g/m*3 11.6 C 0 km/h
1219 03-06-2011 03:51:04 11.5 C 5.68 g/m*3 11.5 C 0 km/h
1220 03-06-2011 04:03:04 11.6 C 5.72 g/m*3 11.6 C 0 km/h
1221 03-06-2011 04:15:04 11.4 C 5.65 g/m*3 11.4 C 0 km/h
1222 03-06-2011 04:27:04 11.3 C 5.71 g/m*3 11.3 C 0 km/h
1223 03-06-2011 04:39:04 11.4 C 5.65 g/m*3 11.4 C 0 km/h
1224 03-06-2011 04:51:04 11 C 5.51 g/m*3 11 C 0 km/h
1225 03-06-2011 05:03:04 11 C 5.61 g/m*3 11 C 0 km/h
Sensor: Nr:Datum:Temp:Abs-Feuchte:Windchill:Wind:
Aussen-T/F 1226 03-06-2011 05:15:04 11.2 C 5.68 g/m*3 11.2 C 0 km/h
1227 03-06-2011 05:27:04 11.2 C 5.57 g/m*3 11.2 C 0 km/h
1228 03-06-2011 05:39:04 11.5 C 5.78 g/m*3 11.5 C 0 km/h
1229 03-06-2011 05:51:04 11.5 C 5.78 g/m*3 11.5 C 0 km/h
1230 03-06-2011 06:03:04 11.7 C 5.96 g/m*3 11.7 C 0 km/h
1231 03-06-2011 06:15:04 12.1 C 5.9 g/m*3 12.1 C 0 km/h
1232 03-06-2011 06:27:04 12.5 C 6.38 g/m*3 12.5 C 0 km/h
1233 03-06-2011 06:39:04 12.8 C 6.61 g/m*3 12.8 C 0 km/h
1234 03-06-2011 06:51:04 12.9 C 6.42 g/m*3 12.9 C 0 km/h
1235 03-06-2011 07:03:03 13.2 C 6.32 g/m*3 13.2 C 0 km/h
1236 03-06-2011 07:15:01 13.6 C 6.36 g/m*3 13.6 C 0 km/h
1237 03-06-2011 07:27:01 14.4 C 6.06 g/m*3 14.4 C 0 km/h
1238 03-06-2011 07:39:02 14.9 C 6.37 g/m*3 14.9 C 0 km/h
1239 03-06-2011 07:51:02 15 C 6.41 g/m*3 15 C 0 km/h
1240 03-06-2011 08:03:03 15.1 C 6.58 g/m*3 15.1 C 0 km/h
1241 03-06-2011 08:15:02 15.6 C 6.52 g/m*3 15.6 C 0 km/h
1242 03-06-2011 08:27:02 16.2 C 6.21 g/m*3 16.2 C 0 km/h
1243 03-06-2011 08:39:03 17 C 5.79 g/m*3 17 C 0 km/h
1244 03-06-2011 08:51:02 17.7 C 6.04 g/m*3 17.7 C 0 km/h
1245 03-06-2011 09:03:02 18.3 C 6.1 g/m*3 18.3 C 0 km/h
1246 03-06-2011 09:15:02 18.6 C 5.89 g/m*3 18.6 C 0 km/h
1247 03-06-2011 09:27:02 18.9 C 5.99 g/m*3 18.9 C 0 km/h
1248 03-06-2011 09:39:02 19.5 C 5.87 g/m*3 19.5 C 0 km/h
1249 03-06-2011 09:51:02 20.1 C 5.74 g/m*3 20.1 C 0 km/h
1250 03-06-2011 10:03:03 20.7 C 5.94 g/m*3 20.7 C 0 km/h
Sensor: Nr:Datum:Temp:Abs-Feuchte:Windchill:Wind:
Aussen-T/F 1251 03-06-2011 10:15:02 20.8 C 5.79 g/m*3 20.8 C 0 km/h
1252 03-06-2011 10:27:02 21 C 5.86 g/m*3 21 C 0 km/h
1253 03-06-2011 10:39:02 21 C 5.68 g/m*3 21 C 0 km/h
1254 03-06-2011 10:51:01 21.9 C 5.79 g/m*3 21.9 C 0 km/h
1255 03-06-2011 11:03:02 22.1 C 5.47 g/m*3 22.1 C 0 km/h
1256 03-06-2011 11:15:02 21.9 C 5.79 g/m*3 21.9 C 0 km/h
1257 03-06-2011 11:27:03 22.1 C 6.05 g/m*3 22.1 C 0 km/h
1258 03-06-2011 11:39:01 22.9 C 5.72 g/m*3 22.9 C 0 km/h
1259 03-06-2011 11:51:01 23 C 5.55 g/m*3 23 C 0 km/h
1260 03-06-2011 12:03:02 23 C 5.34 g/m*3 23 C 0 km/h
1261 03-06-2011 12:15:01 23.2 C 5.2 g/m*3 23.2 C 0 km/h
1262 03-06-2011 12:27:01 23.7 C 5.78 g/m*3 23.7 C 0 km/h
1263 03-06-2011 12:39:02 24.8 C 5.69 g/m*3 24.8 C 0 km/h
1264 03-06-2011 12:51:02 25.1 C 5.79 g/m*3 25.1 C 0 km/h
1265 03-06-2011 13:03:02 25.4 C 5.41 g/m*3 25.4 C 0 km/h
1266 03-06-2011 13:15:02 26.1 C 5.39 g/m*3 26.1 C 0 km/h
1267 03-06-2011 13:27:02 25.5 C 5.45 g/m*3 25.5 C 0 km/h
1268 03-06-2011 13:39:02 26.3 C 5.69 g/m*3 26.3 C 0 km/h
1269 03-06-2011 13:51:02 28.9 C 5.71 g/m*3 28.9 C 0 km/h
1270 03-06-2011 14:03:02 27.5 C 5.82 g/m*3 27.5 C 0 km/h
1271 03-06-2011 14:15:02 29.4 C 5.87 g/m*3 29.4 C 0 km/h
1272 03-06-2011 14:27:02 29.6 C 5.94 g/m*3 29.6 C 0 km/h
1273 03-06-2011 14:39:02 25.5 C 5.68 g/m*3 25.5 C 0 km/h
1274 03-06-2011 14:51:02 25.4 C 6.12 g/m*3 25.4 C 0 km/h
1275 03-06-2011 15:03:02 28.5 C 6.15 g/m*3 28.5 C 0 km/h
Sensor: Nr:Datum:Temp:Abs-Feuchte:Windchill:Wind:
Aussen-T/F 1276 03-06-2011 15:15:03 30.2 C 6.13 g/m*3 30.2 C 0 km/h
1277 03-06-2011 15:27:03 31 C 6.4 g/m*3 31 C 0 km/h
1278 03-06-2011 15:39:02 31.5 C 6.57 g/m*3 31.5 C 0 km/h
1279 03-06-2011 15:51:02 31.4 C 6.54 g/m*3 31.4 C 0 km/h
1280 03-06-2011 16:03:01 30 C 6.06 g/m*3 30 C 0 km/h
1281 03-06-2011 16:15:02 31.1 C 6.43 g/m*3 31.1 C 0 km/h
1282 03-06-2011 16:27:02 31.4 C 6.54 g/m*3 31.4 C 0 km/h
1283 03-06-2011 16:39:02 31.9 C 6.72 g/m*3 31.9 C 0 km/h
1284 03-06-2011 16:51:02 30.9 C 6.37 g/m*3 30.9 C 0 km/h
1285 03-06-2011 17:03:03 31.6 C 6.61 g/m*3 31.6 C 0 km/h
1286 03-06-2011 17:15:02 31.2 C 6.47 g/m*3 31.2 C 0 km/h
1287 03-06-2011 17:27:02 31.5 C 6.57 g/m*3 31.5 C 0 km/h
1288 03-06-2011 17:39:02 31.6 C 6.61 g/m*3 31.6 C 0 km/h
1289 03-06-2011 17:51:02 31.4 C 6.54 g/m*3 31.4 C 0 km/h
1290 03-06-2011 18:03:02 30.5 C 6.23 g/m*3 30.5 C 0 km/h
1291 03-06-2011 18:15:01 30.8 C 6.33 g/m*3 30.8 C 0 km/h
1292 03-06-2011 18:27:01 29.4 C 5.87 g/m*3 29.4 C 0 km/h
1293 03-06-2011 18:39:02 30 C 6.06 g/m*3 30 C 0 km/h
1294 03-06-2011 18:51:01 30.6 C 6.26 g/m*3 30.6 C 0 km/h
1295 03-06-2011 19:03:02 30.4 C 6.2 g/m*3 30.4 C 0 km/h
1296 03-06-2011 19:15:01 29.4 C 5.87 g/m*3 29.4 C 0 km/h
1297 03-06-2011 19:27:01 29.8 C 6.3 g/m*3 29.8 C 0 km/h
1298 03-06-2011 19:39:02 27.4 C 6.31 g/m*3 27.4 C 0 km/h
1299 03-06-2011 19:51:01 26.3 C 6.44 g/m*3 26.3 C 0 km/h
1300 03-06-2011 20:03:02 25.3 C 6.79 g/m*3 25.3 C 0 km/h
Sensor: Nr:Datum:Temp:Abs-Feuchte:Windchill:Wind:
Aussen-T/F 1301 03-06-2011 20:15:02 25.2 C 6.75 g/m*3 25.2 C 0 km/h
1302 03-06-2011 20:27:02 24.6 C 7.88 g/m*3 24.6 C 0 km/h
1303 03-06-2011 20:39:02 24 C 7.4 g/m*3 24 C 0 km/h
1304 03-06-2011 20:51:02 23.7 C 7.49 g/m*3 23.7 C 0 km/h
1305 03-06-2011 21:03:02 22.9 C 7.77 g/m*3 22.9 C 0 km/h
1306 03-06-2011 21:15:02 22.3 C 7.31 g/m*3 22.3 C 0 km/h
1307 03-06-2011 21:27:02 21.4 C 7.87 g/m*3 21.4 C 0 km/h
1308 03-06-2011 21:39:03 20.8 C 7.97 g/m*3 20.8 C 0 km/h
1309 03-06-2011 21:51:02 20.3 C 7.91 g/m*3 20.3 C 0 km/h
1310 03-06-2011 22:03:02 20.7 C 7.74 g/m*3 20.7 C 0 km/h
1311 03-06-2011 22:15:02 19.9 C 8.08 g/m*3 19.9 C 0 km/h
1312 03-06-2011 22:27:03 20 C 8.12 g/m*3 20 C 0 km/h
1313 03-06-2011 22:39:02 19.8 C 8.03 g/m*3 19.8 C 0 km/h
1314 03-06-2011 22:52:06 19.6 C 7.93 g/m*3 19.6 C 0 km/h
1315 03-06-2011 23:04:06 19.5 C 8.22 g/m*3 19.5 C 0 km/h
1316 03-06-2011 23:16:06 19 C 8.15 g/m*3 19 C 0 km/h
1317 03-06-2011 23:28:06 18.4 C 8.49 g/m*3 18.4 C 0 km/h
1318 03-06-2011 23:40:06 18 C 8.45 g/m*3 18 C 0 km/h
1319 03-06-2011 23:52:06 17.9 C 8.55 g/m*3 17.9 C 0 km/h
1320 04-06-2011 00:04:06 17.7 C 8.45 g/m*3 17.7 C 0 km/h
1321 04-06-2011 00:16:06 17.3 C 8.4 g/m*3 17.3 C 0 km/h
1322 04-06-2011 00:28:06 17.4 C 8.6 g/m*3 17.4 C 0 km/h
1323 04-06-2011 00:40:06 17.4 C 8.45 g/m*3 17.4 C 0 km/h
1324 04-06-2011 00:52:06 17.4 C 8.74 g/m*3 17.4 C 0 km/h
1325 04-06-2011 01:04:06 17 C 8.39 g/m*3 17 C 0 km/h
Sensor: Nr:Datum:Temp:Abs-Feuchte:Windchill:Wind:
Aussen-T/F 1326 04-06-2011 01:16:06 17.1 C 8.73 g/m*3 17.1 C 0 km/h
1327 04-06-2011 01:28:06 17.1 C 8.59 g/m*3 17.1 C 0 km/h
1328 04-06-2011 01:40:06 16.8 C 8.58 g/m*3 16.8 C 0 km/h
1329 04-06-2011 01:52:07 16.8 C 8.58 g/m*3 16.8 C 0 km/h
1330 04-06-2011 02:04:07 16.4 C 8.37 g/m*3 16.4 C 0 km/h
1331 04-06-2011 02:16:07 16.3 C 8.46 g/m*3 16.3 C 0 km/h
1332 04-06-2011 02:28:07 16 C 8.58 g/m*3 16 C 0 km/h
1333 04-06-2011 02:40:07 16 C 8.45 g/m*3 16 C 0 km/h
1334 04-06-2011 02:52:07 15.9 C 8.53 g/m*3 15.9 C 0 km/h
1335 04-06-2011 03:04:07 15.8 C 8.48 g/m*3 15.8 C 0 km/h
1336 04-06-2011 03:16:07 15.8 C 8.62 g/m*3 15.8 C 0 km/h
1337 04-06-2011 03:28:07 15.6 C 8.51 g/m*3 15.6 C 0 km/h
1338 04-06-2011 03:40:07 15.6 C 8.51 g/m*3 15.6 C 0 km/h
1339 04-06-2011 03:52:07 15.4 C 8.41 g/m*3 15.4 C 0 km/h
1340 04-06-2011 04:04:07 15.3 C 8.36 g/m*3 15.3 C 0 km/h
1341 04-06-2011 04:16:07 15.2 C 8.31 g/m*3 15.2 C 0 km/h
1342 04-06-2011 04:28:07 15 C 8.33 g/m*3 15 C 0 km/h
1343 04-06-2011 04:40:07 14.9 C 8.54 g/m*3 14.9 C 0 km/h
1344 04-06-2011 04:52:07 15 C 8.33 g/m*3 15 C 0 km/h
1345 04-06-2011 05:04:07 14.9 C 8.41 g/m*3 14.9 C 0 km/h
1346 04-06-2011 05:16:07 14.7 C 8.31 g/m*3 14.7 C 0 km/h
1347 04-06-2011 05:28:07 14.8 C 8.49 g/m*3 14.8 C 0 km/h
1348 04-06-2011 05:40:07 15 C 8.33 g/m*3 15 C 0 km/h
1349 04-06-2011 05:52:08 14.8 C 8.36 g/m*3 14.8 C 0 km/h
1350 04-06-2011 06:04:08 15 C 8.46 g/m*3 15 C 0 km/h
Sensor: Nr:Datum:Temp:Abs-Feuchte:Windchill:Wind:
Aussen-T/F 1351 04-06-2011 06:16:08 15 C 8.59 g/m*3 15 C 0 km/h
1352 04-06-2011 06:28:08 15.2 C 8.7 g/m*3 15.2 C 0 km/h
1353 04-06-2011 06:40:08 15.7 C 8.83 g/m*3 15.7 C 0 km/h
1354 04-06-2011 06:52:08 16 C 8.86 g/m*3 16 C 0 km/h
1355 04-06-2011 07:04:08 16.7 C 9.1 g/m*3 16.7 C 0 km/h
1356 04-06-2011 07:16:08 17.4 C 9.04 g/m*3 17.4 C 0 km/h
1357 04-06-2011 07:28:08 18.1 C 9.12 g/m*3 18.1 C 0 km/h
1358 04-06-2011 07:40:08 18.6 C 9.39 g/m*3 18.6 C 0 km/h
1359 04-06-2011 07:52:08 18.6 C 9.39 g/m*3 18.6 C 0 km/h
1360 04-06-2011 08:04:08 18.5 C 9.18 g/m*3 18.5 C 0 km/h
1361 04-06-2011 08:16:08 18.4 C 9.28 g/m*3 18.4 C 0 km/h
1362 04-06-2011 08:28:08 18.3 C 9.54 g/m*3 18.3 C 0 km/h
1363 04-06-2011 08:40:08 19 C 9.45 g/m*3 19 C 0 km/h
1364 04-06-2011 08:52:02 20 C 9.51 g/m*3 20 C 0 km/h
1365 04-06-2011 09:04:02 20.3 C 9.67 g/m*3 20.3 C 0 km/h
1366 04-06-2011 09:16:02 20.8 C 9.96 g/m*3 20.8 C 0 km/h
1367 04-06-2011 09:28:02 21.9 C 9.26 g/m*3 21.9 C 0 km/h
1368 04-06-2011 09:40:02 22.6 C 9.24 g/m*3 22.6 C 0 km/h
1369 04-06-2011 09:52:02 22.6 C 8.84 g/m*3 22.6 C 0 km/h
1370 04-06-2011 10:04:02 22.9 C 9.4 g/m*3 22.9 C 0 km/h
1371 04-06-2011 10:16:01 23.5 C 8.88 g/m*3 23.5 C 0 km/h
1372 04-06-2011 10:28:01 24 C 8.49 g/m*3 24 C 0 km/h
1373 04-06-2011 10:40:02 24 C 9.14 g/m*3 24 C 0 km/h
1374 04-06-2011 10:52:03 24.4 C 8.23 g/m*3 24.4 C 0 km/h
1375 04-06-2011 11:04:02 25 C 8.75 g/m*3 25 C 0 km/h
Sensor: Nr:Datum:Temp:Abs-Feuchte:Windchill:Wind:
Aussen-T/F 1376 04-06-2011 11:16:02 25.3 C 8.43 g/m*3 25.3 C 0 km/h
1377 04-06-2011 11:28:02 25.8 C 8.67 g/m*3 25.8 C 0 km/h
1378 04-06-2011 11:40:03 26.2 C 8.37 g/m*3 26.2 C 0 km/h
1379 04-06-2011 11:52:02 27 C 7.98 g/m*3 27 C 0 km/h
1380 04-06-2011 12:04:02 27.4 C 7.89 g/m*3 27.4 C 0 km/h
1381 04-06-2011 12:16:02 27.3 C 7.85 g/m*3 27.3 C 0 km/h
1382 04-06-2011 12:28:02 27.3 C 7.85 g/m*3 27.3 C 0 km/h
1383 04-06-2011 12:40:02 27.4 C 8.16 g/m*3 27.4 C 0 km/h
1384 04-06-2011 12:52:02 27.8 C 8.07 g/m*3 27.8 C 0 km/h
1385 04-06-2011 13:04:02 28.1 C 7.66 g/m*3 28.1 C 0 km/h
1386 04-06-2011 13:16:02 28.7 C 7.91 g/m*3 28.7 C 0 km/h
1387 04-06-2011 13:28:02 31.3 C 7.15 g/m*3 31.3 C 0 km/h
1388 04-06-2011 13:40:02 32 C 6.75 g/m*3 32 C 0 km/h
1389 04-06-2011 13:52:02 32.9 C 7.08 g/m*3 32.9 C 0 km/h
1390 04-06-2011 14:04:02 33.2 C 7.2 g/m*3 33.2 C 0 km/h
1391 04-06-2011 14:16:02 31.8 C 6.68 g/m*3 31.8 C 0 km/h
1392 04-06-2011 14:28:02 33.2 C 7.2 g/m*3 33.2 C 0 km/h
1393 04-06-2011 14:40:02 33 C 7.12 g/m*3 33 C 0 km/h
1394 04-06-2011 14:52:02 32.3 C 6.86 g/m*3 32.3 C 0 km/h
1395 04-06-2011 15:04:02 31.2 C 7.12 g/m*3 31.2 C 0 km/h
1396 04-06-2011 15:16:02 32.6 C 6.97 g/m*3 32.6 C 0 km/h
1397 04-06-2011 15:28:03 30.6 C 7.2 g/m*3 30.6 C 0 km/h
1398 04-06-2011 15:40:01 30.4 C 8.06 g/m*3 30.4 C 0 km/h
1399 04-06-2011 15:52:02 30.1 C 7.93 g/m*3 30.1 C 0 km/h
1400 04-06-2011 16:04:01 30.2 C 7.97 g/m*3 30.2 C 0 km/h
Sensor: Nr:Datum:Temp:Abs-Feuchte:Windchill:Wind:
Aussen-T/F 1401 04-06-2011 16:16:02 30.4 C 7.75 g/m*3 30.4 C 0 km/h
1402 04-06-2011 16:28:02 26.5 C 7.01 g/m*3 26.5 C 0 km/h
1403 04-06-2011 16:40:01 21.6 C 12.14 g/m*3 21.6 C 0 km/h
1404 04-06-2011 16:52:02 20.7 C 13.14 g/m*3 20.7 C 0 km/h
1405 04-06-2011 17:04:02 20.8 C 13.4 g/m*3 20.8 C 0 km/h
1406 04-06-2011 17:16:02 23.6 C 14.25 g/m*3 23.6 C 0 km/h
1407 04-06-2011 17:28:02 24.8 C 13.88 g/m*3 24.8 C 0 km/h
1408 04-06-2011 17:40:02 24.6 C 13.73 g/m*3 24.6 C 0 km/h
1409 04-06-2011 17:52:02 23.1 C 13.23 g/m*3 23.1 C 0 km/h
1410 04-06-2011 18:04:02 22.6 C 13.86 g/m*3 22.6 C 0 km/h
1411 04-06-2011 18:16:02 22.1 C 13.66 g/m*3 22.1 C 0 km/h
1412 04-06-2011 18:28:02 21.4 C 13.5 g/m*3 21.4 C 0 km/h
1413 04-06-2011 18:40:01 20.4 C 13.09 g/m*3 20.4 C 0 km/h
1414 04-06-2011 18:52:02 20.1 C 13.04 g/m*3 20.1 C 0 km/h
1415 04-06-2011 19:04:01 20.3 C 13.37 g/m*3 20.3 C 0 km/h
1416 04-06-2011 19:16:01 20.9 C 13.48 g/m*3 20.9 C 0 km/h
1417 04-06-2011 19:28:01 20.9 C 13.11 g/m*3 20.9 C 0 km/h
1418 04-06-2011 19:40:02 20.6 C 12.89 g/m*3 20.6 C 0 km/h
1419 04-06-2011 19:52:02 20.4 C 12.56 g/m*3 20.4 C 0 km/h
1420 04-06-2011 20:04:02 20.5 C 12.46 g/m*3 20.5 C 0 km/h
1421 04-06-2011 20:16:02 20.5 C 12.28 g/m*3 20.5 C 0 km/h
1422 04-06-2011 20:28:02 20.4 C 12.38 g/m*3 20.4 C 0 km/h
1423 04-06-2011 20:40:02 20.4 C 12.38 g/m*3 20.4 C 0 km/h
1424 04-06-2011 20:52:02 20.3 C 12.49 g/m*3 20.3 C 0 km/h
1425 04-06-2011 21:04:02 20 C 12.27 g/m*3 20 C 0 km/h
Sensor: Nr:Datum:Temp:Abs-Feuchte:Windchill:Wind:
Aussen-T/F 1426 04-06-2011 21:16:02 19.5 C 12.75 g/m*3 19.5 C 0 km/h
1427 04-06-2011 21:28:02 19.4 C 12.68 g/m*3 19.4 C 0 km/h
1428 04-06-2011 21:40:02 19.6 C 12.32 g/m*3 19.6 C 0 km/h
1429 04-06-2011 21:52:01 19.4 C 12.35 g/m*3 19.4 C 0 km/h
1430 04-06-2011 22:04:01 19.4 C 12.01 g/m*3 19.4 C 0 km/h
1431 04-06-2011 22:17:02 18.8 C 12.88 g/m*3 18.8 C 0 km/h
1432 04-06-2011 22:29:02 18.4 C 12.9 g/m*3 18.4 C 0 km/h
1433 04-06-2011 22:41:02 18.1 C 12.82 g/m*3 18.1 C 0 km/h
1434 04-06-2011 22:53:03 18.1 C 12.98 g/m*3 18.1 C 0 km/h
1435 04-06-2011 23:05:03 18 C 13.06 g/m*3 18 C 0 km/h
1436 04-06-2011 23:17:03 18.1 C 13.13 g/m*3 18.1 C 0 km/h
1437 04-06-2011 23:29:03 18 C 13.21 g/m*3 18 C 0 km/h
1438 04-06-2011 23:41:03 17.9 C 13.28 g/m*3 17.9 C 0 km/h
1439 04-06-2011 23:53:03 17.9 C 13.44 g/m*3 17.9 C 0 km/h
1440 05-06-2011 00:05:03 17.9 C 13.44 g/m*3 17.9 C 0 km/h
1441 05-06-2011 00:17:03 17.9 C 13.44 g/m*3 17.9 C 0 km/h
1442 05-06-2011 00:29:03 17.7 C 13.28 g/m*3 17.7 C 0 km/h
1443 05-06-2011 00:41:03 17.8 C 13.36 g/m*3 17.8 C 0 km/h
1444 05-06-2011 00:53:03 17.7 C 13.28 g/m*3 17.7 C 0 km/h
1445 05-06-2011 01:05:03 17.6 C 13.2 g/m*3 17.6 C 0 km/h
1446 05-06-2011 01:17:03 17.4 C 13.04 g/m*3 17.4 C 0 km/h
1447 05-06-2011 01:29:03 17.5 C 13.12 g/m*3 17.5 C 0 km/h
1448 05-06-2011 01:41:03 17.2 C 12.89 g/m*3 17.2 C 0 km/h
1449 05-06-2011 01:53:03 17 C 12.73 g/m*3 17 C 0 km/h
1450 05-06-2011 02:05:03 16.9 C 12.8 g/m*3 16.9 C 0 km/h
Sensor: Nr:Datum:Temp:Abs-Feuchte:Windchill:Wind:
Aussen-T/F 1451 05-06-2011 02:17:03 16.7 C 12.65 g/m*3 16.7 C 0 km/h
1452 05-06-2011 02:29:03 16.5 C 12.5 g/m*3 16.5 C 0 km/h
1453 05-06-2011 02:41:03 16.3 C 12.35 g/m*3 16.3 C 0 km/h
1454 05-06-2011 02:53:04 16.4 C 12.42 g/m*3 16.4 C 0 km/h
1455 05-06-2011 03:05:04 16.1 C 12.2 g/m*3 16.1 C 0 km/h
1456 05-06-2011 03:17:04 16 C 12.13 g/m*3 16 C 0 km/h
1457 05-06-2011 03:29:04 15.7 C 11.91 g/m*3 15.7 C 0 km/h
1458 05-06-2011 03:41:04 15.7 C 11.91 g/m*3 15.7 C 0 km/h
1459 05-06-2011 03:53:04 15.4 C 11.69 g/m*3 15.4 C 0 km/h
1460 05-06-2011 04:05:04 15.5 C 11.76 g/m*3 15.5 C 0 km/h
1461 05-06-2011 04:17:04 15.5 C 11.76 g/m*3 15.5 C 0 km/h
1462 05-06-2011 04:29:04 15.7 C 11.91 g/m*3 15.7 C 0 km/h
1463 05-06-2011 04:41:04 15.1 C 11.48 g/m*3 15.1 C 0 km/h
1464 05-06-2011 04:53:04 15.1 C 11.48 g/m*3 15.1 C 0 km/h
1465 05-06-2011 05:05:04 15.2 C 11.55 g/m*3 15.2 C 0 km/h
1466 05-06-2011 05:17:04 15.3 C 11.75 g/m*3 15.3 C 0 km/h
1467 05-06-2011 05:29:04 15 C 11.54 g/m*3 15 C 0 km/h
1468 05-06-2011 05:41:04 15.2 C 11.68 g/m*3 15.2 C 0 km/h
1469 05-06-2011 05:53:04 15.6 C 11.97 g/m*3 15.6 C 0 km/h
1470 05-06-2011 06:05:04 15.8 C 12.11 g/m*3 15.8 C 0 km/h
1471 05-06-2011 06:17:04 16.1 C 12.2 g/m*3 16.1 C 0 km/h
1472 05-06-2011 06:29:04 16.2 C 12.41 g/m*3 16.2 C 0 km/h
1473 05-06-2011 06:41:04 16.4 C 12.56 g/m*3 16.4 C 0 km/h
1474 05-06-2011 06:53:04 16.3 C 12.49 g/m*3 16.3 C 0 km/h
1475 05-06-2011 07:05:05 16.3 C 12.49 g/m*3 16.3 C 0 km/h
Sensor: Nr:Datum:Temp:Abs-Feuchte:Windchill:Wind:
Aussen-T/F 1476 05-06-2011 07:17:05 16.4 C 12.56 g/m*3 16.4 C 0 km/h
1477 05-06-2011 07:29:05 16.5 C 12.5 g/m*3 16.5 C 0 km/h
1478 05-06-2011 07:41:05 16.7 C 12.79 g/m*3 16.7 C 0 km/h
1479 05-06-2011 07:53:05 17.4 C 13.19 g/m*3 17.4 C 0 km/h
1480 05-06-2011 08:05:02 17.9 C 13.59 g/m*3 17.9 C 0 km/h
1481 05-06-2011 08:17:02 18 C 13.52 g/m*3 18 C 0 km/h
1482 05-06-2011 08:29:02 18.4 C 13.68 g/m*3 18.4 C 0 km/h
1483 05-06-2011 08:41:02 18.5 C 13.61 g/m*3 18.5 C 0 km/h
1484 05-06-2011 08:53:02 18.7 C 13.45 g/m*3 18.7 C 0 km/h
1485 05-06-2011 09:05:01 18.6 C 12.73 g/m*3 18.6 C 0 km/h
1486 05-06-2011 09:17:02 19.5 C 12.59 g/m*3 19.5 C 0 km/h
1487 05-06-2011 09:29:02 19.9 C 12.54 g/m*3 19.9 C 0 km/h
1488 05-06-2011 09:41:02 19.5 C 12.25 g/m*3 19.5 C 0 km/h
1489 05-06-2011 09:53:01 19.5 C 12.42 g/m*3 19.5 C 0 km/h
1490 05-06-2011 10:05:02 19.9 C 13.4 g/m*3 19.9 C 0 km/h
1491 05-06-2011 10:17:02 20.2 C 13.46 g/m*3 20.2 C 0 km/h
1492 05-06-2011 10:29:02 20.6 C 13.42 g/m*3 20.6 C 0 km/h
1493 05-06-2011 10:41:01 21.8 C 14.01 g/m*3 21.8 C 0 km/h
1494 05-06-2011 10:53:02 21.7 C 12.97 g/m*3 21.7 C 0 km/h
1495 05-06-2011 11:05:01 21.7 C 12.97 g/m*3 21.7 C 0 km/h
1496 05-06-2011 11:17:01 21.7 C 12.59 g/m*3 21.7 C 0 km/h
1497 05-06-2011 11:29:02 22.2 C 12.96 g/m*3 22.2 C 0 km/h
1498 05-06-2011 11:41:01 22.4 C 13.31 g/m*3 22.4 C 0 km/h
1499 05-06-2011 11:53:02 23.2 C 13.1 g/m*3 23.2 C 0 km/h
1500 05-06-2011 12:05:02 23.7 C 12.62 g/m*3 23.7 C 0 km/h
Sensor: Nr:Datum:Temp:Abs-Feuchte:Windchill:Wind:
Aussen-T/F 1501 05-06-2011 12:17:02 24.1 C 12.25 g/m*3 24.1 C 0 km/h
1502 05-06-2011 12:29:02 23.7 C 13.9 g/m*3 23.7 C 0 km/h
1503 05-06-2011 12:41:02 24.4 C 14.02 g/m*3 24.4 C 0 km/h
1504 05-06-2011 12:53:01 24.8 C 13.2 g/m*3 24.8 C 0 km/h
1505 05-06-2011 13:05:02 25.3 C 14.05 g/m*3 25.3 C 0 km/h
1506 05-06-2011 13:17:01 24.9 C 13.73 g/m*3 24.9 C 0 km/h
1507 05-06-2011 13:29:01 24.8 C 13.88 g/m*3 24.8 C 0 km/h
1508 05-06-2011 13:41:02 25 C 13.81 g/m*3 25 C 0 km/h
1509 05-06-2011 13:53:02 25.6 C 15 g/m*3 25.6 C 0 km/h
1510 05-06-2011 14:05:02 25.3 C 14.05 g/m*3 25.3 C 0 km/h
1511 05-06-2011 14:17:01 24.7 C 15.16 g/m*3 24.7 C 0 km/h
1512 05-06-2011 14:29:01 24.4 C 15.58 g/m*3 24.4 C 0 km/h
1513 05-06-2011 14:41:02 27.5 C 14.55 g/m*3 27.5 C 0 km/h
1514 05-06-2011 14:53:02 28.1 C 11.76 g/m*3 28.1 C 0 km/h
1515 05-06-2011 15:05:02 27.7 C 13.91 g/m*3 27.7 C 0 km/h
1516 05-06-2011 15:17:01 25.3 C 12.88 g/m*3 25.3 C 0 km/h
1517 05-06-2011 15:29:01 23.7 C 14.33 g/m*3 23.7 C 0 km/h
1518 05-06-2011 15:41:16 21.9 C 14.67 g/m*3 21.9 C 0 km/h
1519 05-06-2011 15:53:16 21.1 C 14.56 g/m*3 21.1 C 0 km/h
1520 05-06-2011 16:05:16 19.5 C 13.43 g/m*3 19.5 C 0 km/h
1521 05-06-2011 16:17:16 17.4 C 12 g/m*3 17.4 C 0 km/h
1522 05-06-2011 16:29:16 17.3 C 12.23 g/m*3 17.3 C 0 km/h
1523 05-06-2011 16:41:16 17.6 C 12.6 g/m*3 17.6 C 0 km/h
1524 05-06-2011 16:53:16 17.3 C 12.37 g/m*3 17.3 C 0 km/h
1525 05-06-2011 17:05:02 17.4 C 12.6 g/m*3 17.4 C 0 km/h
Sensor: Nr:Datum:Temp:Abs-Feuchte:Windchill:Wind:
Aussen-T/F 1526 05-06-2011 17:17:02 17.5 C 12.82 g/m*3 17.5 C 0 km/h
1527 05-06-2011 17:29:02 17.7 C 12.98 g/m*3 17.7 C 0 km/h
1528 05-06-2011 17:41:02 17.2 C 12.59 g/m*3 17.2 C 0 km/h
1529 05-06-2011 17:53:02 17.2 C 12.59 g/m*3 17.2 C 0 km/h
1530 05-06-2011 18:05:01 17.2 C 12.59 g/m*3 17.2 C 0 km/h
1531 05-06-2011 18:17:02 16.9 C 12.51 g/m*3 16.9 C 0 km/h
1532 05-06-2011 18:29:02 16.9 C 12.51 g/m*3 16.9 C 0 km/h
1533 05-06-2011 18:41:02 16.8 C 12.44 g/m*3 16.8 C 0 km/h
1534 05-06-2011 18:53:02 16.8 C 12.58 g/m*3 16.8 C 0 km/h
1535 05-06-2011 19:05:03 17 C 12.59 g/m*3 17 C 0 km/h
1536 05-06-2011 19:17:02 17.2 C 12.74 g/m*3 17.2 C 0 km/h
1537 05-06-2011 19:29:02 17.4 C 13.04 g/m*3 17.4 C 0 km/h
1538 05-06-2011 19:41:02 17.7 C 13.28 g/m*3 17.7 C 0 km/h
1539 05-06-2011 19:53:01 17.8 C 13.36 g/m*3 17.8 C 0 km/h
1540 05-06-2011 20:05:02 17.8 C 13.2 g/m*3 17.8 C 0 km/h
1541 05-06-2011 20:17:01 17.8 C 13.2 g/m*3 17.8 C 0 km/h
1542 05-06-2011 20:29:01 17.6 C 13.05 g/m*3 17.6 C 0 km/h
1543 05-06-2011 20:41:02 17.3 C 12.82 g/m*3 17.3 C 0 km/h
1544 05-06-2011 20:53:01 17.3 C 12.82 g/m*3 17.3 C 0 km/h
1545 05-06-2011 21:05:02 17.2 C 12.74 g/m*3 17.2 C 0 km/h
1546 05-06-2011 21:17:01 17 C 12.59 g/m*3 17 C 0 km/h
1547 05-06-2011 21:29:01 16.8 C 12.58 g/m*3 16.8 C 0 km/h
1548 05-06-2011 21:41:02 16.7 C 12.51 g/m*3 16.7 C 0 km/h
1549 05-06-2011 21:53:01 16.7 C 12.65 g/m*3 16.7 C 0 km/h
1550 05-06-2011 22:05:01 16.7 C 12.65 g/m*3 16.7 C 0 km/h
Sensor: Nr:Datum:Temp:Abs-Feuchte:Windchill:Wind:
Aussen-T/F 1551 05-06-2011 22:17:02 16.8 C 12.72 g/m*3 16.8 C 0 km/h
1552 05-06-2011 22:29:02 16.8 C 12.72 g/m*3 16.8 C 0 km/h
1553 05-06-2011 22:41:01 16.4 C 12.42 g/m*3 16.4 C 0 km/h
1554 05-06-2011 22:53:03 16.2 C 12.27 g/m*3 16.2 C 0 km/h
1555 05-06-2011 23:06:05 16.1 C 12.2 g/m*3 16.1 C 0 km/h
1556 05-06-2011 23:18:05 16 C 12.13 g/m*3 16 C 0 km/h
1557 05-06-2011 23:30:05 15.9 C 12.05 g/m*3 15.9 C 0 km/h
1558 05-06-2011 23:42:05 15.5 C 11.76 g/m*3 15.5 C 0 km/h
1559 05-06-2011 23:54:05 15 C 11.41 g/m*3 15 C 0 km/h
1560 06-06-2011 00:06:05 15.3 C 11.62 g/m*3 15.3 C 0 km/h
1561 06-06-2011 00:18:05 15.3 C 11.75 g/m*3 15.3 C 0 km/h
1562 06-06-2011 00:30:06 14.9 C 11.47 g/m*3 14.9 C 0 km/h
1563 06-06-2011 00:42:06 15 C 11.41 g/m*3 15 C 0 km/h
1564 06-06-2011 00:54:06 15 C 11.54 g/m*3 15 C 0 km/h
1565 06-06-2011 01:06:06 15.1 C 11.61 g/m*3 15.1 C 0 km/h
1566 06-06-2011 01:18:06 15.1 C 11.61 g/m*3 15.1 C 0 km/h
1567 06-06-2011 01:30:06 14.9 C 11.6 g/m*3 14.9 C 0 km/h
1568 06-06-2011 01:42:06 15 C 11.54 g/m*3 15 C 0 km/h
1569 06-06-2011 01:54:06 15 C 11.54 g/m*3 15 C 0 km/h
1570 06-06-2011 02:06:06 15.1 C 11.61 g/m*3 15.1 C 0 km/h
1571 06-06-2011 02:18:06 15.1 C 11.61 g/m*3 15.1 C 0 km/h
1572 06-06-2011 02:30:06 15.1 C 11.61 g/m*3 15.1 C 0 km/h
1573 06-06-2011 02:42:06 15 C 11.54 g/m*3 15 C 0 km/h
1574 06-06-2011 02:54:06 15 C 11.54 g/m*3 15 C 0 km/h
1575 06-06-2011 03:06:06 15.1 C 11.61 g/m*3 15.1 C 0 km/h
Sensor: Nr:Datum:Temp:Abs-Feuchte:Windchill:Wind:
Aussen-T/F 1576 06-06-2011 03:18:06 14.9 C 11.6 g/m*3 14.9 C 0 km/h
1577 06-06-2011 03:30:06 15 C 11.54 g/m*3 15 C 0 km/h
1578 06-06-2011 03:42:06 14.5 C 11.32 g/m*3 14.5 C 0 km/h
1579 06-06-2011 03:54:06 14.4 C 11.25 g/m*3 14.4 C 0 km/h
1580 06-06-2011 04:06:06 14.4 C 11.25 g/m*3 14.4 C 0 km/h
1581 06-06-2011 04:18:06 13.8 C 10.84 g/m*3 13.8 C 0 km/h
1582 06-06-2011 04:30:06 14 C 10.98 g/m*3 14 C 0 km/h
1583 06-06-2011 04:42:07 14 C 10.98 g/m*3 14 C 0 km/h
1584 06-06-2011 04:54:07 13.7 C 10.78 g/m*3 13.7 C 0 km/h
1585 06-06-2011 05:06:07 14 C 10.98 g/m*3 14 C 0 km/h
1586 06-06-2011 05:18:07 13.6 C 10.71 g/m*3 13.6 C 0 km/h
1587 06-06-2011 05:30:07 13.6 C 10.71 g/m*3 13.6 C 0 km/h
1588 06-06-2011 05:42:07 13.5 C 10.64 g/m*3 13.5 C 0 km/h
1589 06-06-2011 05:54:07 13.7 C 10.78 g/m*3 13.7 C 0 km/h
1590 06-06-2011 06:06:07 13.7 C 10.78 g/m*3 13.7 C 0 km/h
1591 06-06-2011 06:18:07 14 C 10.98 g/m*3 14 C 0 km/h
1592 06-06-2011 06:30:07 14.2 C 11.11 g/m*3 14.2 C 0 km/h
1593 06-06-2011 06:42:07 14.4 C 11.25 g/m*3 14.4 C 0 km/h
1594 06-06-2011 06:54:07 14.8 C 11.53 g/m*3 14.8 C 0 km/h
1595 06-06-2011 07:06:07 14.9 C 11.6 g/m*3 14.9 C 0 km/h
1596 06-06-2011 07:18:04 15.2 C 11.68 g/m*3 15.2 C 0 km/h
1597 06-06-2011 07:30:04 15.4 C 11.82 g/m*3 15.4 C 0 km/h
1598 06-06-2011 07:42:04 15.5 C 11.9 g/m*3 15.5 C 0 km/h
1599 06-06-2011 07:54:03 15.7 C 12.04 g/m*3 15.7 C 0 km/h
1600 06-06-2011 08:06:02 16.1 C 12.34 g/m*3 16.1 C 0 km/h
Sensor: Nr:Datum:Temp:Abs-Feuchte:Windchill:Wind:
Aussen-T/F 1601 06-06-2011 08:18:02 16.8 C 12.87 g/m*3 16.8 C 0 km/h
1602 06-06-2011 08:30:02 17 C 12.88 g/m*3 17 C 0 km/h
1603 06-06-2011 08:42:02 18.3 C 13.76 g/m*3 18.3 C 0 km/h
1604 06-06-2011 08:54:02 18.1 C 13.44 g/m*3 18.1 C 0 km/h
1605 06-06-2011 09:06:01 18.3 C 13.29 g/m*3 18.3 C 0 km/h
1606 06-06-2011 09:18:02 18.1 C 12.82 g/m*3 18.1 C 0 km/h
1607 06-06-2011 09:30:02 18.1 C 12.98 g/m*3 18.1 C 0 km/h
1608 06-06-2011 09:42:02 18.3 C 12.98 g/m*3 18.3 C 0 km/h
1609 06-06-2011 09:54:02 18.8 C 13.37 g/m*3 18.8 C 0 km/h
1610 06-06-2011 10:06:02 19 C 13.53 g/m*3 19 C 0 km/h
1611 06-06-2011 10:18:02 19.6 C 13.34 g/m*3 19.6 C 0 km/h
1612 06-06-2011 10:30:02 20.7 C 13.14 g/m*3 20.7 C 0 km/h
1613 06-06-2011 10:42:02 21.3 C 11.93 g/m*3 21.3 C 0 km/h
1614 06-06-2011 10:54:02 21.4 C 12 g/m*3 21.4 C 0 km/h
1615 06-06-2011 11:06:02 21.9 C 11.77 g/m*3 21.9 C 0 km/h
1616 06-06-2011 11:18:02 22.9 C 10.83 g/m*3 22.9 C 0 km/h
1617 06-06-2011 11:30:02 21.5 C 10.75 g/m*3 21.5 C 0 km/h
1618 06-06-2011 11:42:02 22.3 C 10.86 g/m*3 22.3 C 0 km/h
1619 06-06-2011 11:54:02 22.9 C 11.24 g/m*3 22.9 C 0 km/h
1620 06-06-2011 12:06:02 23 C 11.1 g/m*3 23 C 0 km/h
1621 06-06-2011 12:18:02 22.9 C 10.83 g/m*3 22.9 C 0 km/h
1622 06-06-2011 12:30:02 23.5 C 10.79 g/m*3 23.5 C 0 km/h
1623 06-06-2011 12:42:02 23.9 C 11.03 g/m*3 23.9 C 0 km/h
1624 06-06-2011 12:54:02 24.2 C 10.78 g/m*3 24.2 C 0 km/h
1625 06-06-2011 13:06:01 24.6 C 11.25 g/m*3 24.6 C 0 km/h
Sensor: Nr:Datum:Temp:Abs-Feuchte:Windchill:Wind:
Aussen-T/F 1626 06-06-2011 13:18:02 24.6 C 10.35 g/m*3 24.6 C 0 km/h
1627 06-06-2011 13:30:02 29.1 C 10.11 g/m*3 29.1 C 0 km/h
1628 06-06-2011 13:42:01 27.8 C 9.95 g/m*3 27.8 C 0 km/h
1629 06-06-2011 13:54:02 27 C 9.01 g/m*3 27 C 0 km/h
1630 06-06-2011 14:06:01 28.3 C 9.68 g/m*3 28.3 C 0 km/h
1631 06-06-2011 14:18:01 27.3 C 9.42 g/m*3 27.3 C 0 km/h
1632 06-06-2011 14:30:01 26.7 C 9.37 g/m*3 26.7 C 0 km/h
1633 06-06-2011 14:42:02 26.4 C 8.96 g/m*3 26.4 C 0 km/h
1634 06-06-2011 14:54:02 26.5 C 10.01 g/m*3 26.5 C 0 km/h
1635 06-06-2011 15:06:02 26.2 C 8.86 g/m*3 26.2 C 0 km/h
1636 06-06-2011 15:18:01 25.8 C 9.87 g/m*3 25.8 C 0 km/h
1637 06-06-2011 15:30:01 25.5 C 11.6 g/m*3 25.5 C 0 km/h
1638 06-06-2011 15:42:02 27.2 C 10.15 g/m*3 27.2 C 0 km/h
1639 06-06-2011 15:54:02 25.1 C 9.26 g/m*3 25.1 C 0 km/h
1640 06-06-2011 16:06:02 24.8 C 10.24 g/m*3 24.8 C 0 km/h
1641 06-06-2011 16:18:01 25.1 C 10.19 g/m*3 25.1 C 0 km/h
1642 06-06-2011 16:30:01 26.1 C 10.28 g/m*3 26.1 C 0 km/h
1643 06-06-2011 16:42:02 25.8 C 10.11 g/m*3 25.8 C 0 km/h
1644 06-06-2011 16:54:02 23 C 8.63 g/m*3 23 C 0 km/h
1645 06-06-2011 17:06:02 21.1 C 8.84 g/m*3 21.1 C 0 km/h
1646 06-06-2011 17:18:01 18 C 9.83 g/m*3 18 C 0 km/h
1647 06-06-2011 17:30:01 16.9 C 10.79 g/m*3 16.9 C 0 km/h
1648 06-06-2011 17:42:02 16.4 C 10.89 g/m*3 16.4 C 0 km/h
1649 06-06-2011 17:54:01 16.3 C 11.38 g/m*3 16.3 C 0 km/h
1650 06-06-2011 18:06:02 16.4 C 11.72 g/m*3 16.4 C 0 km/h
Sensor: Nr:Datum:Temp:Abs-Feuchte:Windchill:Wind:
Aussen-T/F 1651 06-06-2011 18:18:02 17 C 12.01 g/m*3 17 C 0 km/h
1652 06-06-2011 18:30:02 16.8 C 12.01 g/m*3 16.8 C 0 km/h
1653 06-06-2011 18:42:01 17.2 C 12.3 g/m*3 17.2 C 0 km/h
1654 06-06-2011 18:54:02 17.2 C 12.3 g/m*3 17.2 C 0 km/h
1655 06-06-2011 19:06:01 17.2 C 12.3 g/m*3 17.2 C 0 km/h
1656 06-06-2011 19:18:02 17.5 C 12.67 g/m*3 17.5 C 0 km/h
1657 06-06-2011 19:30:03 17.8 C 12.9 g/m*3 17.8 C 0 km/h
1658 06-06-2011 19:42:01 18.1 C 12.82 g/m*3 18.1 C 0 km/h
1659 06-06-2011 19:54:02 18.1 C 12.82 g/m*3 18.1 C 0 km/h
1660 06-06-2011 20:06:02 18.1 C 12.67 g/m*3 18.1 C 0 km/h
1661 06-06-2011 20:18:02 18.1 C 12.67 g/m*3 18.1 C 0 km/h
1662 06-06-2011 20:30:02 18.1 C 12.67 g/m*3 18.1 C 0 km/h
1663 06-06-2011 20:42:49 17.5 C 12.52 g/m*3 17.5 C 0 km/h
1664 06-06-2011 20:54:49 17.2 C 12.45 g/m*3 17.2 C 0 km/h
1665 06-06-2011 21:06:49 16.8 C 12.15 g/m*3 16.8 C 0 km/h
1666 06-06-2011 21:18:03 16.5 C 12.08 g/m*3 16.5 C 0 km/h
1667 06-06-2011 21:30:03 16.3 C 11.93 g/m*3 16.3 C 0 km/h
1668 06-06-2011 21:42:02 16.2 C 12 g/m*3 16.2 C 0 km/h
1669 06-06-2011 21:55:02 15.9 C 11.78 g/m*3 15.9 C 0 km/h
1670 06-06-2011 22:07:02 15.9 C 11.92 g/m*3 15.9 C 0 km/h
1671 06-06-2011 22:19:02 15.6 C 11.7 g/m*3 15.6 C 0 km/h
1672 06-06-2011 22:31:02 15.3 C 11.49 g/m*3 15.3 C 0 km/h
1673 06-06-2011 22:43:02 15.8 C 11.98 g/m*3 15.8 C 0 km/h
1674 06-06-2011 22:55:02 15.6 C 11.84 g/m*3 15.6 C 0 km/h
1675 06-06-2011 23:07:03 15.5 C 11.76 g/m*3 15.5 C 0 km/h
Sensor: Nr:Datum:Temp:Abs-Feuchte:Windchill:Wind:
Aussen-T/F 1676 06-06-2011 23:19:03 15.7 C 11.91 g/m*3 15.7 C 0 km/h
1677 06-06-2011 23:31:03 15.6 C 11.84 g/m*3 15.6 C 0 km/h
1678 06-06-2011 23:43:03 15.6 C 11.84 g/m*3 15.6 C 0 km/h
1679 06-06-2011 23:55:03 15.4 C 11.69 g/m*3 15.4 C 0 km/h

Legende:
   Min
   Max


Maximal/Minimal-Werte vom 23.02.2003 - 07.06.2011

Sensor Min Max Avg
Temp
(Aussen-T/F)
-16.4 °C
20-12-2009  01:30:01
36.2 °C
08-08-2003  16:43:01
11.52 °C

Die Daten stammen von einer Davis Vantage Pro 2 Wetter-Station und werden unter Linux mit der Software wview2wettercgi und aufbereitet. Alle Angaben erfolgen ohne Gewähr für ihre Vollständigkeit oder Richtigkeit.
Kontakt: Rainer Krienke krienke@uni-koblenz.de . Meine Webseiten an der Uni Koblenz oder privat.
Version: $Revision: 0.78 $